SVA3033 OERK-HKMO
Flight info
| Callsign | SVA3033 |
|---|---|
| Flight time | 6h 37m |
| Altitude | 33000 |
| Route | RAPMA2D/33R RAPMA DCT GOBRO L425 ASPUX UL425 DONSA/N0495F340 DCT MOXET DCT VUTAS UG424 ANVET DCT ORSER UL434 MOBAT MOBAT3A |
| Aircraft | B77L/H-SDE1E2E3FGHIJ2J3J4J5M1RWXY/LB1D1 |
Departure
| Time | 2026-04-22 21:59 |
|---|---|
| Airport | King Khalid International Airport (OERK) |
Arrival
| Time | 2026-04-23 04:36 |
|---|---|
| Airport | Moi International Airport (HKMO) |
| Time | Latitude | Longitude | Altitude | Speed | Heading |
|---|---|---|---|---|---|
| 2026-04-22 21:30 | 24.97760 | 46.69383 | 2146 ft | 0 kts | 240° |
| 2026-04-22 21:42 | 24.97769 | 46.69400 | 2148 ft | 4 kts | 240° |
| 2026-04-22 21:42 | 24.97783 | 46.69426 | 2144 ft | 4 kts | 240° |
| 2026-04-22 21:43 | 24.97796 | 46.69451 | 2147 ft | 3 kts | 240° |
| 2026-04-22 21:43 | 24.97810 | 46.69471 | 2143 ft | 4 kts | 204° |
| 2026-04-22 21:43 | 24.97832 | 46.69471 | 2143 ft | 4 kts | 150° |
| 2026-04-22 21:43 | 24.97849 | 46.69460 | 2143 ft | 1 kts | 150° |
| 2026-04-22 21:44 | 24.97851 | 46.69458 | 2143 ft | 2 kts | 150° |
| 2026-04-22 21:47 | 24.97847 | 46.69460 | 2143 ft | 2 kts | 150° |
| 2026-04-22 21:48 | 24.97802 | 46.69489 | 2143 ft | 11 kts | 150° |
| 2026-04-22 21:48 | 24.97733 | 46.69533 | 2146 ft | 11 kts | 150° |
| 2026-04-22 21:48 | 24.97664 | 46.69577 | 2147 ft | 11 kts | 150° |
| 2026-04-22 21:48 | 24.97597 | 46.69620 | 2144 ft | 11 kts | 149° |
| 2026-04-22 21:49 | 24.97528 | 46.69664 | 2142 ft | 11 kts | 150° |
| 2026-04-22 21:49 | 24.97461 | 46.69709 | 2142 ft | 11 kts | 143° |
| 2026-04-22 21:49 | 24.97451 | 46.69785 | 2146 ft | 11 kts | 62° |
| 2026-04-22 21:49 | 24.97489 | 46.69862 | 2141 ft | 11 kts | 61° |
| 2026-04-22 21:50 | 24.97514 | 46.69914 | 2144 ft | 11 kts | 66° |
| 2026-04-22 21:50 | 24.97461 | 46.70006 | 2145 ft | 12 kts | 148° |
| 2026-04-22 21:50 | 24.97391 | 46.70050 | 2148 ft | 12 kts | 150° |
| 2026-04-22 21:50 | 24.97314 | 46.70098 | 2146 ft | 13 kts | 150° |
| 2026-04-22 21:51 | 24.97259 | 46.70133 | 2142 ft | 14 kts | 150° |
| 2026-04-22 21:51 | 24.97136 | 46.70210 | 2146 ft | 16 kts | 150° |
| 2026-04-22 21:51 | 24.97037 | 46.70273 | 2143 ft | 17 kts | 150° |
| 2026-04-22 21:52 | 24.96856 | 46.70389 | 2144 ft | 19 kts | 149° |
| 2026-04-22 21:52 | 24.96737 | 46.70464 | 2142 ft | 20 kts | 150° |
| 2026-04-22 21:52 | 24.96613 | 46.70541 | 2144 ft | 21 kts | 150° |
| 2026-04-22 21:52 | 24.96485 | 46.70623 | 2145 ft | 22 kts | 150° |
| 2026-04-22 21:53 | 24.96353 | 46.70706 | 2142 ft | 22 kts | 150° |
| 2026-04-22 21:53 | 24.96219 | 46.70790 | 2144 ft | 22 kts | 150° |
| 2026-04-22 21:53 | 24.96086 | 46.70874 | 2149 ft | 22 kts | 151° |
| 2026-04-22 21:53 | 24.95952 | 46.70954 | 2143 ft | 22 kts | 150° |
| 2026-04-22 21:54 | 24.95820 | 46.71036 | 2144 ft | 22 kts | 150° |
| 2026-04-22 21:54 | 24.95686 | 46.71121 | 2147 ft | 22 kts | 150° |
| 2026-04-22 21:54 | 24.95555 | 46.71204 | 2144 ft | 22 kts | 150° |
| 2026-04-22 21:54 | 24.95423 | 46.71288 | 2147 ft | 22 kts | 150° |
| 2026-04-22 21:55 | 24.95290 | 46.71374 | 2149 ft | 22 kts | 149° |
| 2026-04-22 21:55 | 24.95158 | 46.71457 | 2142 ft | 22 kts | 150° |
| 2026-04-22 21:55 | 24.95025 | 46.71542 | 2145 ft | 22 kts | 150° |
| 2026-04-22 21:55 | 24.94893 | 46.71626 | 2145 ft | 22 kts | 149° |
| 2026-04-22 21:56 | 24.94761 | 46.71709 | 2143 ft | 22 kts | 150° |
| 2026-04-22 21:56 | 24.94629 | 46.71792 | 2149 ft | 22 kts | 150° |
| 2026-04-22 21:56 | 24.94495 | 46.71876 | 2145 ft | 22 kts | 150° |
| 2026-04-22 21:56 | 24.94362 | 46.71960 | 2143 ft | 22 kts | 150° |
| 2026-04-22 21:57 | 24.94297 | 46.72036 | 2145 ft | 14 kts | 92° |
| 2026-04-22 21:57 | 24.94326 | 46.72108 | 2147 ft | 11 kts | 59° |
| 2026-04-22 21:57 | 24.94370 | 46.72189 | 2138 ft | 14 kts | 59° |
| 2026-04-22 21:57 | 24.94403 | 46.72248 | 2142 ft | 5 kts | 56° |
| 2026-04-22 21:58 | 24.94437 | 46.72249 | 2139 ft | 5 kts | 335° |
| 2026-04-22 21:58 | 24.94482 | 46.72225 | 2142 ft | 15 kts | 332° |
| 2026-04-22 21:58 | 24.94697 | 46.72092 | 2142 ft | 67 kts | 330° |
| 2026-04-22 21:58 | 24.95301 | 46.71708 | 2140 ft | 133 kts | 330° |
| 2026-04-22 21:59 | 24.96266 | 46.71102 | 2139 ft | 184 kts | 332° |
| 2026-04-22 21:59 | 24.97413 | 46.70408 | 2564 ft | 188 kts | 331° |
| 2026-04-22 21:59 | 24.98591 | 46.69758 | 3042 ft | 194 kts | 338° |
| 2026-04-22 21:59 | 24.99863 | 46.69254 | 3701 ft | 195 kts | 342° |
| 2026-04-22 22:00 | 25.01190 | 46.68754 | 4088 ft | 209 kts | 346° |
| 2026-04-22 22:00 | 25.02619 | 46.68210 | 4265 ft | 229 kts | 345° |
| 2026-04-22 22:00 | 25.04173 | 46.67603 | 4531 ft | 247 kts | 343° |
| 2026-04-22 22:00 | 25.05872 | 46.66937 | 4904 ft | 264 kts | 343° |
| 2026-04-22 22:01 | 25.07593 | 46.66257 | 5566 ft | 270 kts | 341° |
| 2026-04-22 22:01 | 25.09459 | 46.65760 | 6027 ft | 279 kts | 1° |
| 2026-04-22 22:01 | 25.11348 | 46.66157 | 6652 ft | 283 kts | 19° |
| 2026-04-22 22:01 | 25.13226 | 46.66878 | 7307 ft | 287 kts | 18° |
| 2026-04-22 22:02 | 25.15145 | 46.67609 | 7863 ft | 293 kts | 18° |
| 2026-04-22 22:02 | 25.17042 | 46.68447 | 8208 ft | 295 kts | 31° |
| 2026-04-22 22:02 | 25.18514 | 46.70044 | 8674 ft | 306 kts | 62° |
| 2026-04-22 22:02 | 25.19123 | 46.72286 | 9310 ft | 307 kts | 89° |
| 2026-04-22 22:03 | 25.19136 | 46.74655 | 9851 ft | 314 kts | 94° |
| 2026-04-22 22:03 | 25.19113 | 46.77112 | 10331 ft | 328 kts | 93° |
| 2026-04-22 22:03 | 25.19093 | 46.79718 | 10517 ft | 354 kts | 93° |
| 2026-04-22 22:03 | 25.19083 | 46.82536 | 10814 ft | 374 kts | 92° |
| 2026-04-22 22:04 | 25.19078 | 46.85430 | 11411 ft | 382 kts | 94° |
| 2026-04-22 22:04 | 25.18687 | 46.88335 | 11874 ft | 388 kts | 113° |
| 2026-04-22 22:04 | 25.17420 | 46.91003 | 12215 ft | 396 kts | 125° |
| 2026-04-22 22:04 | 25.16013 | 46.93624 | 12842 ft | 407 kts | 124° |
| 2026-04-22 22:05 | 25.14584 | 46.96386 | 13650 ft | 413 kts | 123° |
| 2026-04-22 22:05 | 25.13188 | 46.99132 | 14539 ft | 413 kts | 122° |
| 2026-04-22 22:05 | 25.11792 | 47.01906 | 15291 ft | 418 kts | 122° |
| 2026-04-22 22:05 | 25.10370 | 47.04739 | 15935 ft | 426 kts | 122° |
| 2026-04-22 22:06 | 25.08913 | 47.07643 | 16612 ft | 432 kts | 123° |
| 2026-04-22 22:06 | 25.07458 | 47.10543 | 17319 ft | 437 kts | 123° |
| 2026-04-22 22:06 | 25.05968 | 47.13513 | 18020 ft | 442 kts | 123° |
| 2026-04-22 22:06 | 25.04475 | 47.16484 | 18627 ft | 448 kts | 123° |
| 2026-04-22 22:07 | 25.02948 | 47.19519 | 19245 ft | 452 kts | 122° |
| 2026-04-22 22:07 | 25.01426 | 47.22544 | 19847 ft | 456 kts | 122° |
| 2026-04-22 22:07 | 24.99875 | 47.25626 | 20447 ft | 461 kts | 123° |
| 2026-04-22 22:07 | 24.98301 | 47.28751 | 21012 ft | 466 kts | 123° |
| 2026-04-22 22:08 | 24.96730 | 47.31870 | 21587 ft | 471 kts | 123° |
| 2026-04-22 22:08 | 24.95127 | 47.35050 | 22238 ft | 473 kts | 122° |
| 2026-04-22 22:08 | 24.93521 | 47.38232 | 22822 ft | 476 kts | 122° |
| 2026-04-22 22:08 | 24.91826 | 47.41364 | 23198 ft | 482 kts | 130° |
| 2026-04-22 22:09 | 24.89564 | 47.44110 | 23568 ft | 482 kts | 141° |
| 2026-04-22 22:09 | 24.87067 | 47.46613 | 24003 ft | 484 kts | 142° |
| 2026-04-22 22:09 | 24.84566 | 47.49084 | 24496 ft | 487 kts | 142° |
| 2026-04-22 22:09 | 24.82041 | 47.51617 | 24973 ft | 490 kts | 142° |
| 2026-04-22 22:10 | 24.79564 | 47.54157 | 25484 ft | 492 kts | 141° |
| 2026-04-22 22:10 | 24.77072 | 47.56755 | 26106 ft | 492 kts | 141° |
| 2026-04-22 22:10 | 24.74600 | 47.59353 | 26525 ft | 496 kts | 141° |
| 2026-04-22 22:10 | 24.72077 | 47.62011 | 26902 ft | 502 kts | 141° |
| 2026-04-22 22:11 | 24.69558 | 47.64664 | 27314 ft | 506 kts | 141° |
| 2026-04-22 22:11 | 24.66996 | 47.67358 | 27773 ft | 509 kts | 141° |
| 2026-04-22 22:11 | 24.64443 | 47.70039 | 28207 ft | 511 kts | 141° |
| 2026-04-22 22:11 | 24.61851 | 47.72756 | 28593 ft | 515 kts | 140° |
| 2026-04-22 22:12 | 24.59275 | 47.75455 | 28932 ft | 520 kts | 140° |
| 2026-04-22 22:12 | 24.56623 | 47.78219 | 29310 ft | 523 kts | 142° |
| 2026-04-22 22:12 | 24.53766 | 47.80600 | 29641 ft | 517 kts | 157° |
| 2026-04-22 22:12 | 24.50531 | 47.82172 | 30070 ft | 508 kts | 163° |
| 2026-04-22 22:13 | 24.47240 | 47.83594 | 30502 ft | 507 kts | 164° |
| 2026-04-22 22:13 | 24.43936 | 47.85030 | 30913 ft | 509 kts | 164° |
| 2026-04-22 22:13 | 24.40647 | 47.86490 | 31017 ft | 517 kts | 163° |
| 2026-04-22 22:13 | 24.37300 | 47.88015 | 31370 ft | 519 kts | 163° |
| 2026-04-22 22:14 | 24.33994 | 47.89553 | 31853 ft | 517 kts | 163° |
| 2026-04-22 22:14 | 24.30664 | 47.91118 | 32340 ft | 516 kts | 163° |
| 2026-04-22 22:14 | 24.27382 | 47.92663 | 32720 ft | 517 kts | 163° |
| 2026-04-22 22:14 | 24.24050 | 47.94229 | 32914 ft | 521 kts | 163° |
| 2026-04-22 22:15 | 24.20708 | 47.95795 | 32959 ft | 523 kts | 163° |
| 2026-04-22 22:15 | 24.14031 | 47.98922 | 32938 ft | 517 kts | 163° |
| 2026-04-22 22:16 | 24.07455 | 48.01995 | 32967 ft | 516 kts | 163° |
| 2026-04-22 22:16 | 24.00833 | 48.05078 | 32934 ft | 516 kts | 163° |
| 2026-04-22 22:17 | 23.94240 | 48.08147 | 32944 ft | 518 kts | 163° |
| 2026-04-22 22:17 | 23.87588 | 48.11242 | 32926 ft | 520 kts | 163° |
| 2026-04-22 22:18 | 23.80925 | 48.14339 | 32915 ft | 522 kts | 163° |
| 2026-04-22 22:18 | 23.74233 | 48.17447 | 32929 ft | 524 kts | 163° |
| 2026-04-22 22:19 | 23.67494 | 48.20572 | 32920 ft | 526 kts | 163° |
| 2026-04-22 22:19 | 23.60786 | 48.23673 | 32906 ft | 527 kts | 163° |
| 2026-04-22 22:20 | 23.54023 | 48.26798 | 32900 ft | 527 kts | 163° |
| 2026-04-22 22:20 | 23.47256 | 48.29923 | 32902 ft | 527 kts | 163° |
| 2026-04-22 22:21 | 23.40521 | 48.33080 | 32875 ft | 528 kts | 159° |
| 2026-04-22 22:21 | 23.37450 | 48.35300 | 32889 ft | 541 kts | 142° |
| 2026-04-22 22:21 | 23.34950 | 48.38450 | 32892 ft | 548 kts | 128° |
| 2026-04-22 22:22 | 23.30620 | 48.45378 | 32905 ft | 557 kts | 127° |
| 2026-04-22 22:22 | 23.26245 | 48.52232 | 32878 ft | 552 kts | 128° |
| 2026-04-22 22:23 | 23.21794 | 48.59016 | 32862 ft | 549 kts | 129° |
| 2026-04-22 22:23 | 23.17322 | 48.65752 | 32874 ft | 550 kts | 129° |
| 2026-04-22 22:24 | 23.12846 | 48.72488 | 32871 ft | 552 kts | 129° |
| 2026-04-22 22:24 | 23.08350 | 48.79260 | 32844 ft | 553 kts | 129° |
| 2026-04-22 22:25 | 23.03832 | 48.86066 | 32850 ft | 556 kts | 129° |
| 2026-04-22 22:25 | 22.99290 | 48.92898 | 32858 ft | 559 kts | 129° |
| 2026-04-22 22:26 | 22.94725 | 48.99757 | 32849 ft | 561 kts | 129° |
| 2026-04-22 22:26 | 22.90151 | 49.06618 | 32841 ft | 562 kts | 129° |
| 2026-04-22 22:27 | 22.85589 | 49.13455 | 32846 ft | 560 kts | 129° |
| 2026-04-22 22:27 | 22.81021 | 49.20290 | 32842 ft | 559 kts | 129° |
| 2026-04-22 22:28 | 22.76473 | 49.27085 | 32842 ft | 557 kts | 129° |
| 2026-04-22 22:28 | 22.71926 | 49.33869 | 32830 ft | 556 kts | 129° |
| 2026-04-22 22:29 | 22.67384 | 49.40639 | 32833 ft | 555 kts | 129° |
| 2026-04-22 22:29 | 22.62835 | 49.47409 | 32833 ft | 555 kts | 129° |
| 2026-04-22 22:30 | 22.58293 | 49.54159 | 32811 ft | 555 kts | 129° |
| 2026-04-22 22:30 | 22.53750 | 49.60904 | 32829 ft | 554 kts | 129° |
| 2026-04-22 22:31 | 22.49209 | 49.67636 | 32825 ft | 554 kts | 129° |
| 2026-04-22 22:31 | 22.45400 | 49.73277 | 32819 ft | 554 kts | 129° |
| 2026-04-22 22:32 | 22.40844 | 49.80016 | 32818 ft | 554 kts | 129° |
| 2026-04-22 22:32 | 22.36310 | 49.86714 | 32818 ft | 555 kts | 129° |
| 2026-04-22 22:33 | 22.31751 | 49.93441 | 32815 ft | 555 kts | 129° |
| 2026-04-22 22:33 | 22.27169 | 50.00192 | 32818 ft | 556 kts | 129° |
| 2026-04-22 22:34 | 22.22599 | 50.06919 | 32796 ft | 555 kts | 129° |
| 2026-04-22 22:34 | 22.18058 | 50.13595 | 32810 ft | 553 kts | 129° |
| 2026-04-22 22:35 | 22.13496 | 50.20294 | 32811 ft | 552 kts | 129° |
| 2026-04-22 22:35 | 22.08945 | 50.26966 | 32809 ft | 551 kts | 129° |
| 2026-04-22 22:36 | 22.04438 | 50.33566 | 32795 ft | 549 kts | 129° |
| 2026-04-22 22:36 | 21.99883 | 50.40228 | 32804 ft | 549 kts | 129° |
| 2026-04-22 22:37 | 21.95377 | 50.46810 | 32804 ft | 548 kts | 129° |
| 2026-04-22 22:37 | 21.90844 | 50.53422 | 32806 ft | 549 kts | 129° |
| 2026-04-22 22:38 | 21.86304 | 50.60039 | 32790 ft | 549 kts | 129° |
| 2026-04-22 22:38 | 21.81773 | 50.66635 | 32797 ft | 548 kts | 129° |
| 2026-04-22 22:39 | 21.77241 | 50.73223 | 32804 ft | 548 kts | 129° |
| 2026-04-22 22:39 | 21.72710 | 50.79801 | 32795 ft | 548 kts | 129° |
| 2026-04-22 22:40 | 21.68166 | 50.86391 | 32795 ft | 548 kts | 129° |
| 2026-04-22 22:40 | 21.63625 | 50.92970 | 32788 ft | 547 kts | 129° |
| 2026-04-22 22:41 | 21.59089 | 50.99532 | 32792 ft | 547 kts | 129° |
| 2026-04-22 22:41 | 21.54550 | 51.06091 | 32792 ft | 546 kts | 129° |
| 2026-04-22 22:42 | 21.50022 | 51.12626 | 32785 ft | 546 kts | 129° |
| 2026-04-22 22:42 | 21.45479 | 51.19176 | 32782 ft | 545 kts | 129° |
| 2026-04-22 22:43 | 21.40943 | 51.25708 | 32792 ft | 544 kts | 129° |
| 2026-04-22 22:43 | 21.36415 | 51.32220 | 32791 ft | 544 kts | 129° |
| 2026-04-22 22:44 | 21.31892 | 51.38716 | 32776 ft | 544 kts | 129° |
| 2026-04-22 22:44 | 21.27390 | 51.45177 | 32775 ft | 543 kts | 129° |
| 2026-04-22 22:45 | 21.22854 | 51.51679 | 32777 ft | 543 kts | 129° |
| 2026-04-22 22:45 | 21.18347 | 51.58130 | 32773 ft | 543 kts | 129° |
| 2026-04-22 22:46 | 21.13812 | 51.64614 | 32763 ft | 542 kts | 129° |
| 2026-04-22 22:46 | 21.09292 | 51.71070 | 32771 ft | 541 kts | 129° |
| 2026-04-22 22:47 | 21.04790 | 51.77493 | 32774 ft | 539 kts | 129° |
| 2026-04-22 22:47 | 21.00305 | 51.83884 | 32777 ft | 539 kts | 129° |
| 2026-04-22 22:48 | 20.95791 | 51.90308 | 32773 ft | 539 kts | 129° |
| 2026-04-22 22:48 | 20.91280 | 51.96720 | 32769 ft | 541 kts | 129° |
| 2026-04-22 22:49 | 20.86754 | 52.03149 | 32772 ft | 543 kts | 129° |
| 2026-04-22 22:49 | 20.82199 | 52.09612 | 32770 ft | 544 kts | 129° |
| 2026-04-22 22:50 | 20.77621 | 52.16098 | 32769 ft | 545 kts | 129° |
| 2026-04-22 22:50 | 20.73049 | 52.22569 | 32763 ft | 546 kts | 129° |
| 2026-04-22 22:51 | 20.68481 | 52.29026 | 32771 ft | 547 kts | 128° |
| 2026-04-22 22:51 | 20.63865 | 52.35545 | 32767 ft | 548 kts | 129° |
| 2026-04-22 22:52 | 20.59270 | 52.42026 | 32756 ft | 548 kts | 129° |
| 2026-04-22 22:52 | 20.54680 | 52.48494 | 32760 ft | 547 kts | 129° |
| 2026-04-22 22:53 | 20.50090 | 52.54953 | 32760 ft | 546 kts | 129° |
| 2026-04-22 22:53 | 20.45492 | 52.61416 | 32762 ft | 546 kts | 129° |
| 2026-04-22 22:54 | 20.40918 | 52.67839 | 32762 ft | 546 kts | 129° |
| 2026-04-22 22:54 | 20.36310 | 52.74303 | 32752 ft | 546 kts | 129° |
| 2026-04-22 22:55 | 20.31714 | 52.80741 | 32771 ft | 546 kts | 129° |
| 2026-04-22 22:55 | 20.24824 | 52.90382 | 32770 ft | 547 kts | 129° |
| 2026-04-22 22:56 | 20.20214 | 52.96824 | 32774 ft | 547 kts | 129° |
| 2026-04-22 22:56 | 20.15611 | 53.03248 | 32765 ft | 547 kts | 129° |
| 2026-04-22 22:57 | 20.10977 | 53.09708 | 32775 ft | 548 kts | 129° |
| 2026-04-22 22:57 | 20.06351 | 53.16151 | 32773 ft | 549 kts | 129° |
| 2026-04-22 22:58 | 20.01718 | 53.22598 | 32776 ft | 550 kts | 129° |
| 2026-04-22 22:58 | 19.97070 | 53.29056 | 32765 ft | 550 kts | 129° |
| 2026-04-22 22:59 | 19.92396 | 53.35542 | 32770 ft | 551 kts | 129° |
| 2026-04-22 22:59 | 19.87732 | 53.42010 | 32781 ft | 551 kts | 129° |
| 2026-04-22 23:00 | 19.83067 | 53.48471 | 32781 ft | 552 kts | 129° |
| 2026-04-22 23:00 | 19.78407 | 53.54918 | 32789 ft | 552 kts | 129° |
| 2026-04-22 23:01 | 19.73725 | 53.61391 | 32775 ft | 553 kts | 129° |
| 2026-04-22 23:01 | 19.69042 | 53.67859 | 32791 ft | 553 kts | 129° |
| 2026-04-22 23:02 | 19.64343 | 53.74364 | 32797 ft | 553 kts | 128° |
| 2026-04-22 23:02 | 19.60468 | 53.81408 | 32799 ft | 555 kts | 115° |
| 2026-04-22 23:03 | 19.57820 | 53.89061 | 32793 ft | 554 kts | 104° |
| 2026-04-22 23:03 | 19.55791 | 53.96932 | 32789 ft | 554 kts | 105° |
| 2026-04-22 23:04 | 19.53603 | 54.04786 | 32798 ft | 554 kts | 106° |
| 2026-04-22 23:04 | 19.51372 | 54.12612 | 32795 ft | 554 kts | 106° |
| 2026-04-22 23:05 | 19.49147 | 54.20432 | 32801 ft | 555 kts | 106° |
| 2026-04-22 23:05 | 19.46939 | 54.28219 | 32807 ft | 555 kts | 106° |
| 2026-04-22 23:06 | 19.44712 | 54.36074 | 32804 ft | 555 kts | 106° |
| 2026-04-22 23:06 | 19.42495 | 54.43877 | 32803 ft | 555 kts | 106° |
| 2026-04-22 23:07 | 19.40271 | 54.51688 | 32812 ft | 554 kts | 106° |
| 2026-04-22 23:07 | 19.38036 | 54.59523 | 32805 ft | 554 kts | 106° |
| 2026-04-22 23:08 | 19.35804 | 54.67335 | 32811 ft | 554 kts | 106° |
| 2026-04-22 23:08 | 19.33564 | 54.75157 | 32814 ft | 554 kts | 106° |
| 2026-04-22 23:09 | 19.31328 | 54.82953 | 32812 ft | 554 kts | 105° |
| 2026-04-22 23:09 | 19.29087 | 54.90754 | 32811 ft | 554 kts | 105° |
| 2026-04-22 23:10 | 19.26849 | 54.98531 | 32815 ft | 554 kts | 106° |
| 2026-04-22 23:10 | 19.24598 | 55.06340 | 32822 ft | 554 kts | 105° |
| 2026-04-22 23:11 | 19.22346 | 55.14139 | 32824 ft | 554 kts | 105° |
| 2026-04-22 23:11 | 19.20094 | 55.21924 | 32822 ft | 553 kts | 105° |
| 2026-04-22 23:12 | 19.17837 | 55.29710 | 32831 ft | 553 kts | 105° |
| 2026-04-22 23:12 | 19.15583 | 55.37475 | 32829 ft | 553 kts | 105° |
| 2026-04-22 23:13 | 19.13707 | 55.43929 | 32835 ft | 553 kts | 105° |
| 2026-04-22 23:13 | 19.11446 | 55.51694 | 32833 ft | 553 kts | 105° |
| 2026-04-22 23:14 | 19.09170 | 55.59498 | 32831 ft | 553 kts | 105° |
| 2026-04-22 23:14 | 19.06909 | 55.67239 | 32838 ft | 552 kts | 105° |
| 2026-04-22 23:15 | 19.04640 | 55.74994 | 32838 ft | 552 kts | 105° |
| 2026-04-22 23:15 | 19.02367 | 55.82771 | 32838 ft | 552 kts | 105° |
| 2026-04-22 23:16 | 19.00104 | 55.90506 | 32848 ft | 552 kts | 105° |
| 2026-04-22 23:16 | 18.97832 | 55.98261 | 32843 ft | 552 kts | 105° |
| 2026-04-22 23:17 | 18.95552 | 56.06006 | 32841 ft | 552 kts | 105° |
| 2026-04-22 23:17 | 18.93257 | 56.13730 | 32844 ft | 552 kts | 105° |
| 2026-04-22 23:18 | 18.90956 | 56.21456 | 32841 ft | 552 kts | 105° |
| 2026-04-22 23:18 | 18.88657 | 56.29175 | 32850 ft | 552 kts | 105° |
| 2026-04-22 23:19 | 18.86356 | 56.36895 | 32847 ft | 551 kts | 105° |
| 2026-04-22 23:19 | 18.84046 | 56.44636 | 32851 ft | 551 kts | 105° |
| 2026-04-22 23:20 | 18.81744 | 56.52331 | 32846 ft | 551 kts | 105° |
| 2026-04-22 23:20 | 18.79440 | 56.60023 | 32855 ft | 551 kts | 105° |
| 2026-04-22 23:21 | 18.77116 | 56.67769 | 32840 ft | 551 kts | 105° |
| 2026-04-22 23:21 | 18.74801 | 56.75469 | 32847 ft | 551 kts | 105° |
| 2026-04-22 23:22 | 18.72491 | 56.83144 | 32843 ft | 550 kts | 105° |
| 2026-04-22 23:22 | 18.70177 | 56.90818 | 32848 ft | 550 kts | 105° |
| 2026-04-22 23:23 | 18.67852 | 56.98516 | 32849 ft | 550 kts | 105° |
| 2026-04-22 23:23 | 18.65531 | 57.06189 | 32844 ft | 550 kts | 105° |
| 2026-04-22 23:24 | 18.63191 | 57.13908 | 32854 ft | 550 kts | 105° |
| 2026-04-22 23:24 | 18.60864 | 57.21577 | 32842 ft | 550 kts | 105° |
| 2026-04-22 23:25 | 18.58538 | 57.29230 | 32838 ft | 549 kts | 105° |
| 2026-04-22 23:25 | 18.56205 | 57.36893 | 32851 ft | 549 kts | 105° |
| 2026-04-22 23:26 | 18.53860 | 57.44581 | 32850 ft | 549 kts | 105° |
| 2026-04-22 23:26 | 18.51520 | 57.52243 | 32849 ft | 548 kts | 105° |
| 2026-04-22 23:27 | 18.49186 | 57.59872 | 32853 ft | 548 kts | 105° |
| 2026-04-22 23:27 | 18.46853 | 57.67485 | 32853 ft | 548 kts | 105° |
| 2026-04-22 23:28 | 18.44504 | 57.75141 | 32852 ft | 547 kts | 105° |
| 2026-04-22 23:28 | 18.42167 | 57.82744 | 32855 ft | 547 kts | 105° |
| 2026-04-22 23:29 | 18.39818 | 57.90379 | 32856 ft | 547 kts | 105° |
| 2026-04-22 23:29 | 18.37479 | 57.97966 | 32865 ft | 546 kts | 105° |
| 2026-04-22 23:30 | 18.35127 | 58.05544 | 32857 ft | 546 kts | 105° |
| 2026-04-22 23:30 | 18.32759 | 58.13134 | 32854 ft | 545 kts | 106° |
| 2026-04-22 23:31 | 18.30388 | 58.20728 | 32862 ft | 545 kts | 106° |
| 2026-04-22 23:31 | 18.28030 | 58.28278 | 32860 ft | 544 kts | 106° |
| 2026-04-22 23:32 | 18.25666 | 58.35837 | 32865 ft | 544 kts | 106° |
| 2026-04-22 23:32 | 18.23301 | 58.43387 | 32848 ft | 543 kts | 106° |
| 2026-04-22 23:33 | 18.20936 | 58.50925 | 32875 ft | 543 kts | 106° |
| 2026-04-22 23:33 | 18.18558 | 58.58491 | 32858 ft | 543 kts | 106° |
| 2026-04-22 23:34 | 18.16197 | 58.65995 | 32862 ft | 542 kts | 106° |
| 2026-04-22 23:34 | 18.13827 | 58.73513 | 32860 ft | 542 kts | 106° |
| 2026-04-22 23:35 | 18.11444 | 58.81063 | 32860 ft | 542 kts | 106° |
| 2026-04-22 23:35 | 18.09074 | 58.88562 | 32862 ft | 542 kts | 106° |
| 2026-04-22 23:36 | 18.06694 | 58.96077 | 32860 ft | 542 kts | 106° |
| 2026-04-22 23:36 | 18.04302 | 59.03623 | 32862 ft | 542 kts | 106° |
| 2026-04-22 23:37 | 18.01915 | 59.11140 | 32865 ft | 542 kts | 106° |
| 2026-04-22 23:37 | 17.99520 | 59.18670 | 32863 ft | 542 kts | 106° |
| 2026-04-22 23:38 | 17.97134 | 59.26163 | 32863 ft | 542 kts | 106° |
| 2026-04-22 23:38 | 17.94746 | 59.33649 | 32873 ft | 542 kts | 106° |
| 2026-04-22 23:39 | 17.92339 | 59.41185 | 32866 ft | 542 kts | 106° |
| 2026-04-22 23:39 | 17.89947 | 59.48662 | 32866 ft | 541 kts | 106° |
| 2026-04-22 23:40 | 17.87558 | 59.56118 | 32867 ft | 541 kts | 106° |
| 2026-04-22 23:40 | 17.85148 | 59.63631 | 32859 ft | 540 kts | 106° |
| 2026-04-22 23:41 | 17.82760 | 59.71064 | 32868 ft | 540 kts | 106° |
| 2026-04-22 23:41 | 17.80358 | 59.78528 | 32861 ft | 540 kts | 106° |
| 2026-04-22 23:42 | 17.77941 | 59.86031 | 32868 ft | 540 kts | 106° |
| 2026-04-22 23:42 | 17.75536 | 59.93489 | 32876 ft | 540 kts | 107° |
| 2026-04-22 23:43 | 17.72866 | 60.00831 | 32864 ft | 542 kts | 114° |
| 2026-04-22 23:43 | 17.69082 | 60.07715 | 32871 ft | 543 kts | 121° |
| 2026-04-22 23:44 | 17.65081 | 60.14393 | 32872 ft | 543 kts | 121° |
| 2026-04-22 23:44 | 17.61102 | 60.21111 | 32877 ft | 543 kts | 121° |
| 2026-04-22 23:45 | 17.57147 | 60.27855 | 32868 ft | 544 kts | 120° |
| 2026-04-22 23:45 | 17.53176 | 60.34639 | 32874 ft | 544 kts | 120° |
| 2026-04-22 23:46 | 17.49216 | 60.41393 | 32870 ft | 545 kts | 120° |
| 2026-04-22 23:46 | 17.45259 | 60.48129 | 32879 ft | 545 kts | 121° |
| 2026-04-22 23:47 | 17.41290 | 60.54875 | 32868 ft | 544 kts | 121° |
| 2026-04-22 23:47 | 17.37318 | 60.61621 | 32874 ft | 544 kts | 120° |
| 2026-04-22 23:48 | 17.33345 | 60.68362 | 32869 ft | 543 kts | 121° |
| 2026-04-22 23:48 | 17.29368 | 60.75103 | 32879 ft | 543 kts | 121° |
| 2026-04-22 23:49 | 17.25405 | 60.81814 | 32874 ft | 543 kts | 121° |
| 2026-04-22 23:49 | 17.21419 | 60.88557 | 32878 ft | 543 kts | 121° |
| 2026-04-22 23:50 | 17.17449 | 60.95266 | 32873 ft | 543 kts | 121° |
| 2026-04-22 23:50 | 17.13468 | 61.01988 | 32871 ft | 543 kts | 121° |
| 2026-04-22 23:51 | 17.09499 | 61.08683 | 32874 ft | 543 kts | 121° |
| 2026-04-22 23:51 | 17.05522 | 61.15383 | 32874 ft | 543 kts | 121° |
| 2026-04-22 23:52 | 17.01527 | 61.22110 | 32874 ft | 543 kts | 121° |
| 2026-04-22 23:52 | 16.97545 | 61.28806 | 32878 ft | 543 kts | 121° |
| 2026-04-22 23:53 | 16.94210 | 61.34410 | 32890 ft | 543 kts | 121° |
| 2026-04-22 23:53 | 16.90226 | 61.41098 | 32868 ft | 543 kts | 121° |
| 2026-04-22 23:54 | 16.86215 | 61.47826 | 32880 ft | 543 kts | 121° |
| 2026-04-22 23:54 | 16.82219 | 61.54522 | 32875 ft | 543 kts | 121° |
| 2026-04-22 23:55 | 16.78234 | 61.61192 | 32876 ft | 543 kts | 121° |
| 2026-04-22 23:55 | 16.74227 | 61.67895 | 32879 ft | 543 kts | 121° |
| 2026-04-22 23:56 | 16.70236 | 61.74565 | 32879 ft | 543 kts | 121° |
| 2026-04-22 23:56 | 16.66211 | 61.81282 | 32878 ft | 543 kts | 121° |
| 2026-04-22 23:57 | 16.62207 | 61.87952 | 32877 ft | 543 kts | 121° |
| 2026-04-22 23:57 | 16.58192 | 61.94636 | 32884 ft | 543 kts | 121° |
| 2026-04-22 23:58 | 16.54199 | 62.01279 | 32876 ft | 543 kts | 121° |
| 2026-04-22 23:58 | 16.50167 | 62.07983 | 32875 ft | 543 kts | 121° |
| 2026-04-22 23:59 | 16.46177 | 62.14610 | 32876 ft | 543 kts | 121° |
| 2026-04-22 23:59 | 16.42150 | 62.21292 | 32864 ft | 542 kts | 121° |
| 2026-04-23 00:00 | 16.36142 | 62.31249 | 32879 ft | 542 kts | 121° |
| 2026-04-23 00:01 | 16.32136 | 62.37881 | 32878 ft | 542 kts | 121° |
| 2026-04-23 00:01 | 16.28131 | 62.44505 | 32878 ft | 541 kts | 121° |
| 2026-04-23 00:02 | 16.24094 | 62.51175 | 32877 ft | 541 kts | 121° |
| 2026-04-23 00:02 | 16.20096 | 62.57775 | 32882 ft | 541 kts | 121° |
| 2026-04-23 00:03 | 16.16096 | 62.64373 | 32867 ft | 540 kts | 121° |
| 2026-04-23 00:03 | 16.12090 | 62.70973 | 32871 ft | 540 kts | 121° |
| 2026-04-23 00:04 | 16.08080 | 62.77575 | 32875 ft | 540 kts | 121° |
| 2026-04-23 00:04 | 16.04070 | 62.84172 | 32882 ft | 540 kts | 121° |
| 2026-04-23 00:05 | 16.00063 | 62.90756 | 32872 ft | 539 kts | 121° |
| 2026-04-23 00:05 | 15.96043 | 62.97357 | 32869 ft | 539 kts | 121° |
| 2026-04-23 00:06 | 15.92029 | 63.03940 | 32871 ft | 538 kts | 121° |
| 2026-04-23 00:06 | 15.88040 | 63.10478 | 32869 ft | 539 kts | 121° |
| 2026-04-23 00:07 | 15.84013 | 63.17073 | 32878 ft | 539 kts | 121° |
| 2026-04-23 00:07 | 15.80007 | 63.23626 | 32870 ft | 539 kts | 121° |
| 2026-04-23 00:08 | 15.75993 | 63.30187 | 32872 ft | 538 kts | 121° |
| 2026-04-23 00:08 | 15.71959 | 63.36775 | 32870 ft | 538 kts | 121° |
| 2026-04-23 00:09 | 15.67947 | 63.43321 | 32871 ft | 538 kts | 122° |
| 2026-04-23 00:09 | 15.63947 | 63.49842 | 32865 ft | 537 kts | 121° |
| 2026-04-23 00:10 | 15.59936 | 63.56376 | 32868 ft | 536 kts | 122° |
| 2026-04-23 00:10 | 15.55931 | 63.62893 | 32872 ft | 536 kts | 122° |
| 2026-04-23 00:11 | 15.51917 | 63.69421 | 32872 ft | 536 kts | 122° |
| 2026-04-23 00:11 | 15.47889 | 63.75963 | 32881 ft | 536 kts | 122° |
| 2026-04-23 00:12 | 15.43875 | 63.82479 | 32870 ft | 536 kts | 122° |
| 2026-04-23 00:12 | 15.39860 | 63.88990 | 32866 ft | 535 kts | 122° |
| 2026-04-23 00:13 | 15.35851 | 63.95487 | 32864 ft | 535 kts | 122° |
| 2026-04-23 00:13 | 15.31846 | 64.01971 | 32870 ft | 535 kts | 122° |
| 2026-04-23 00:14 | 15.27819 | 64.08485 | 32878 ft | 535 kts | 122° |
| 2026-04-23 00:14 | 15.23817 | 64.14953 | 32866 ft | 535 kts | 122° |
| 2026-04-23 00:15 | 15.19799 | 64.21442 | 32868 ft | 534 kts | 122° |
| 2026-04-23 00:15 | 15.15789 | 64.27912 | 32868 ft | 534 kts | 122° |
| 2026-04-23 00:16 | 15.11786 | 64.34366 | 32855 ft | 534 kts | 122° |
| 2026-04-23 00:16 | 15.07771 | 64.40834 | 32872 ft | 533 kts | 122° |
| 2026-04-23 00:17 | 15.03766 | 64.47280 | 32863 ft | 532 kts | 122° |
| 2026-04-23 00:17 | 14.99775 | 64.53697 | 32864 ft | 531 kts | 122° |
| 2026-04-23 00:18 | 14.95774 | 64.60128 | 32859 ft | 531 kts | 122° |
| 2026-04-23 00:18 | 14.91787 | 64.66528 | 32862 ft | 531 kts | 122° |
| 2026-04-23 00:19 | 14.87764 | 64.72983 | 32859 ft | 531 kts | 122° |
| 2026-04-23 00:19 | 14.83777 | 64.79373 | 32848 ft | 531 kts | 122° |
| 2026-04-23 00:20 | 14.79766 | 64.85799 | 32867 ft | 532 kts | 122° |
| 2026-04-23 00:20 | 14.75748 | 64.92229 | 32860 ft | 533 kts | 122° |
| 2026-04-23 00:21 | 14.71733 | 64.98649 | 32869 ft | 533 kts | 122° |
| 2026-04-23 00:21 | 14.67683 | 65.05122 | 32859 ft | 533 kts | 122° |
| 2026-04-23 00:22 | 14.63691 | 65.11496 | 32857 ft | 531 kts | 122° |
| 2026-04-23 00:22 | 14.61400 | 65.14502 | 32849 ft | 528 kts | 137° |
| 2026-04-23 00:22 | 14.58453 | 65.16716 | 32862 ft | 526 kts | 154° |
| 2026-04-23 00:22 | 14.55062 | 65.18064 | 32877 ft | 524 kts | 167° |
| 2026-04-23 00:23 | 14.51433 | 65.18665 | 32855 ft | 521 kts | 181° |
| 2026-04-23 00:23 | 14.44269 | 65.18043 | 32856 ft | 517 kts | 189° |
| 2026-04-23 00:24 | 14.37123 | 65.17181 | 32858 ft | 520 kts | 189° |
| 2026-04-23 00:24 | 14.29884 | 65.16382 | 32855 ft | 523 kts | 188° |
| 2026-04-23 00:25 | 14.22671 | 65.15650 | 32849 ft | 524 kts | 188° |
| 2026-04-23 00:25 | 14.15422 | 65.14932 | 32859 ft | 523 kts | 188° |
| 2026-04-23 00:25 | 14.11763 | 65.14569 | 33009 ft | 526 kts | 188° |
| 2026-04-23 00:26 | 14.08149 | 65.14209 | 33430 ft | 525 kts | 188° |
| 2026-04-23 00:26 | 14.04487 | 65.13843 | 33869 ft | 524 kts | 188° |
| 2026-04-23 00:26 | 14.00876 | 65.13482 | 33843 ft | 526 kts | 188° |
| 2026-04-23 00:27 | 13.93624 | 65.12757 | 33843 ft | 519 kts | 188° |
| 2026-04-23 00:27 | 13.86422 | 65.12037 | 33856 ft | 518 kts | 189° |
| 2026-04-23 00:28 | 13.79259 | 65.11320 | 33857 ft | 518 kts | 189° |
| 2026-04-23 00:28 | 13.72067 | 65.10600 | 33859 ft | 518 kts | 189° |
| 2026-04-23 00:29 | 13.64892 | 65.09883 | 33858 ft | 519 kts | 189° |
| 2026-04-23 00:29 | 13.57718 | 65.09168 | 33847 ft | 520 kts | 189° |
| 2026-04-23 00:30 | 13.50503 | 65.08448 | 33857 ft | 520 kts | 189° |
| 2026-04-23 00:30 | 13.43275 | 65.07728 | 33860 ft | 521 kts | 189° |
| 2026-04-23 00:31 | 13.36098 | 65.07013 | 33858 ft | 521 kts | 189° |
| 2026-04-23 00:31 | 13.28847 | 65.06291 | 33851 ft | 521 kts | 189° |
| 2026-04-23 00:32 | 13.22848 | 65.05694 | 33849 ft | 521 kts | 189° |
| 2026-04-23 00:32 | 13.14458 | 65.04860 | 33844 ft | 520 kts | 189° |
| 2026-04-23 00:33 | 13.08427 | 65.04261 | 33859 ft | 520 kts | 189° |
| 2026-04-23 00:33 | 13.01229 | 65.03546 | 33850 ft | 520 kts | 189° |
| 2026-04-23 00:34 | 12.94043 | 65.02832 | 33846 ft | 520 kts | 189° |
| 2026-04-23 00:34 | 12.86834 | 65.02117 | 33854 ft | 520 kts | 189° |
| 2026-04-23 00:35 | 12.79627 | 65.01402 | 33850 ft | 520 kts | 189° |
| 2026-04-23 00:35 | 12.72426 | 65.00689 | 33850 ft | 520 kts | 189° |
| 2026-04-23 00:36 | 12.65245 | 64.99978 | 33849 ft | 520 kts | 189° |
| 2026-04-23 00:36 | 12.58029 | 64.99263 | 33840 ft | 520 kts | 189° |
| 2026-04-23 00:37 | 12.50810 | 64.98549 | 33849 ft | 520 kts | 189° |
| 2026-04-23 00:37 | 12.43596 | 64.97836 | 33848 ft | 520 kts | 189° |
| 2026-04-23 00:38 | 12.36433 | 64.97128 | 33844 ft | 520 kts | 189° |
| 2026-04-23 00:38 | 12.29193 | 64.96413 | 33848 ft | 521 kts | 189° |
| 2026-04-23 00:39 | 12.22001 | 64.95703 | 33844 ft | 521 kts | 189° |
| 2026-04-23 00:39 | 12.14745 | 64.94987 | 33849 ft | 522 kts | 189° |
| 2026-04-23 00:40 | 12.07534 | 64.94276 | 33852 ft | 522 kts | 189° |
| 2026-04-23 00:40 | 12.00276 | 64.93561 | 33846 ft | 522 kts | 189° |
| 2026-04-23 00:41 | 11.93070 | 64.92851 | 33829 ft | 522 kts | 189° |
| 2026-04-23 00:41 | 11.85836 | 64.92139 | 33838 ft | 521 kts | 189° |
| 2026-04-23 00:42 | 11.78611 | 64.91429 | 33837 ft | 520 kts | 189° |
| 2026-04-23 00:42 | 11.71456 | 64.90725 | 33842 ft | 520 kts | 189° |
| 2026-04-23 00:43 | 11.64222 | 64.90014 | 33846 ft | 519 kts | 189° |
| 2026-04-23 00:43 | 11.57066 | 64.89311 | 33835 ft | 519 kts | 189° |
| 2026-04-23 00:44 | 11.49881 | 64.88606 | 33842 ft | 518 kts | 189° |
| 2026-04-23 00:44 | 11.42692 | 64.87900 | 33845 ft | 517 kts | 189° |
| 2026-04-23 00:45 | 11.35564 | 64.87201 | 33843 ft | 517 kts | 189° |
| 2026-04-23 00:45 | 11.28366 | 64.86495 | 33842 ft | 517 kts | 189° |
| 2026-04-23 00:46 | 11.21243 | 64.85797 | 33837 ft | 516 kts | 189° |
| 2026-04-23 00:46 | 11.14081 | 64.85095 | 33839 ft | 515 kts | 189° |
| 2026-04-23 00:47 | 11.07137 | 64.83799 | 33836 ft | 500 kts | 209° |
| 2026-04-23 00:47 | 11.04221 | 64.81942 | 33849 ft | 489 kts | 225° |
| 2026-04-23 00:47 | 11.01882 | 64.79486 | 33852 ft | 483 kts | 236° |
| 2026-04-23 00:47 | 11.00055 | 64.76650 | 33844 ft | 477 kts | 248° |
| 2026-04-23 00:48 | 10.98853 | 64.73528 | 33858 ft | 471 kts | 253° |
| 2026-04-23 00:48 | 10.96642 | 64.67240 | 33841 ft | 476 kts | 253° |
| 2026-04-23 00:49 | 10.94353 | 64.60861 | 33845 ft | 479 kts | 253° |
| 2026-04-23 00:49 | 10.92030 | 64.54523 | 33842 ft | 480 kts | 253° |
| 2026-04-23 00:50 | 10.89684 | 64.48179 | 33822 ft | 480 kts | 252° |
| 2026-04-23 00:50 | 10.87333 | 64.41834 | 33833 ft | 478 kts | 252° |
| 2026-04-23 00:51 | 10.84986 | 64.35499 | 33834 ft | 476 kts | 252° |
| 2026-04-23 00:51 | 10.82650 | 64.29190 | 33836 ft | 475 kts | 252° |
| 2026-04-23 00:52 | 10.80324 | 64.22913 | 33841 ft | 474 kts | 252° |
| 2026-04-23 00:52 | 10.77992 | 64.16623 | 33838 ft | 475 kts | 252° |
| 2026-04-23 00:53 | 10.75666 | 64.10355 | 33840 ft | 475 kts | 252° |
| 2026-04-23 00:53 | 10.73335 | 64.04079 | 33829 ft | 475 kts | 252° |
| 2026-04-23 00:54 | 10.70992 | 63.97775 | 33840 ft | 476 kts | 252° |
| 2026-04-23 00:54 | 10.68641 | 63.91452 | 33839 ft | 476 kts | 252° |
| 2026-04-23 00:55 | 10.66294 | 63.85145 | 33843 ft | 477 kts | 252° |
| 2026-04-23 00:55 | 10.63958 | 63.78873 | 33840 ft | 477 kts | 252° |
| 2026-04-23 00:56 | 10.61604 | 63.72557 | 33832 ft | 477 kts | 252° |
| 2026-04-23 00:56 | 10.59244 | 63.66229 | 33843 ft | 478 kts | 252° |
| 2026-04-23 00:57 | 10.56893 | 63.59928 | 33841 ft | 478 kts | 252° |
| 2026-04-23 00:57 | 10.54528 | 63.53596 | 33839 ft | 478 kts | 252° |
| 2026-04-23 00:58 | 10.52164 | 63.47271 | 33839 ft | 478 kts | 252° |
| 2026-04-23 00:58 | 10.49805 | 63.40962 | 33835 ft | 478 kts | 252° |
| 2026-04-23 00:59 | 10.47429 | 63.34612 | 33842 ft | 478 kts | 252° |
| 2026-04-23 00:59 | 10.45070 | 63.28311 | 33841 ft | 479 kts | 252° |
| 2026-04-23 01:00 | 10.42708 | 63.22008 | 33841 ft | 479 kts | 252° |
| 2026-04-23 01:00 | 10.40324 | 63.15652 | 33845 ft | 479 kts | 252° |
| 2026-04-23 01:01 | 10.37940 | 63.09297 | 33843 ft | 480 kts | 252° |
| 2026-04-23 01:01 | 10.35572 | 63.02991 | 33842 ft | 480 kts | 252° |
| 2026-04-23 01:02 | 10.33176 | 62.96613 | 33844 ft | 480 kts | 252° |
| 2026-04-23 01:02 | 10.30800 | 62.90295 | 33844 ft | 481 kts | 252° |
| 2026-04-23 01:03 | 10.28417 | 62.83960 | 33844 ft | 481 kts | 252° |
| 2026-04-23 01:03 | 10.26027 | 62.77611 | 33843 ft | 481 kts | 252° |
| 2026-04-23 01:04 | 10.23632 | 62.71256 | 33845 ft | 481 kts | 252° |
| 2026-04-23 01:04 | 10.20045 | 62.61742 | 33844 ft | 482 kts | 252° |
| 2026-04-23 01:05 | 10.17627 | 62.55333 | 33843 ft | 482 kts | 252° |
| 2026-04-23 01:05 | 10.15222 | 62.48965 | 33842 ft | 482 kts | 251° |
| 2026-04-23 01:06 | 10.13222 | 62.43672 | 33845 ft | 482 kts | 251° |
| 2026-04-23 01:06 | 10.10814 | 62.37302 | 33844 ft | 483 kts | 251° |
| 2026-04-23 01:07 | 10.08407 | 62.30941 | 33844 ft | 483 kts | 251° |
| 2026-04-23 01:07 | 10.05995 | 62.24568 | 33844 ft | 483 kts | 251° |
| 2026-04-23 01:08 | 10.03582 | 62.18198 | 33837 ft | 483 kts | 251° |
| 2026-04-23 01:08 | 10.01177 | 62.11855 | 33842 ft | 484 kts | 251° |
| 2026-04-23 01:09 | 9.98746 | 62.05445 | 33845 ft | 484 kts | 251° |
| 2026-04-23 01:09 | 9.96329 | 61.99076 | 33844 ft | 485 kts | 251° |
| 2026-04-23 01:10 | 9.93896 | 61.92671 | 33847 ft | 486 kts | 251° |
| 2026-04-23 01:10 | 9.91460 | 61.86263 | 33843 ft | 486 kts | 251° |
| 2026-04-23 01:11 | 9.89038 | 61.79893 | 33844 ft | 486 kts | 251° |
| 2026-04-23 01:11 | 9.86596 | 61.73478 | 33843 ft | 485 kts | 251° |
| 2026-04-23 01:12 | 9.84166 | 61.67095 | 33844 ft | 485 kts | 251° |
| 2026-04-23 01:12 | 9.81728 | 61.60696 | 33843 ft | 485 kts | 251° |
| 2026-04-23 01:13 | 9.79297 | 61.54321 | 33846 ft | 485 kts | 251° |
| 2026-04-23 01:13 | 9.76872 | 61.47963 | 33846 ft | 484 kts | 251° |
| 2026-04-23 01:14 | 9.74449 | 61.41618 | 33846 ft | 484 kts | 251° |
| 2026-04-23 01:14 | 9.72012 | 61.35237 | 33846 ft | 484 kts | 251° |
| 2026-04-23 01:15 | 9.69580 | 61.28874 | 33847 ft | 484 kts | 251° |
| 2026-04-23 01:15 | 9.67134 | 61.22481 | 33847 ft | 484 kts | 251° |
| 2026-04-23 01:16 | 9.64706 | 61.16136 | 33846 ft | 484 kts | 251° |
| 2026-04-23 01:16 | 9.62256 | 61.09738 | 33847 ft | 484 kts | 251° |
| 2026-04-23 01:17 | 9.59827 | 61.03398 | 33844 ft | 484 kts | 251° |
| 2026-04-23 01:17 | 9.57374 | 60.97000 | 33848 ft | 484 kts | 251° |
| 2026-04-23 01:18 | 9.54931 | 60.90635 | 33847 ft | 484 kts | 251° |
| 2026-04-23 01:18 | 9.52495 | 60.84290 | 33849 ft | 484 kts | 251° |
| 2026-04-23 01:19 | 9.50051 | 60.77925 | 33847 ft | 484 kts | 251° |
| 2026-04-23 01:19 | 9.47606 | 60.71563 | 33846 ft | 485 kts | 251° |
| 2026-04-23 01:20 | 9.45152 | 60.65184 | 33847 ft | 485 kts | 251° |
| 2026-04-23 01:20 | 9.42705 | 60.58825 | 33847 ft | 485 kts | 251° |
| 2026-04-23 01:21 | 9.40253 | 60.52457 | 33847 ft | 485 kts | 251° |
| 2026-04-23 01:21 | 9.37795 | 60.46079 | 33844 ft | 485 kts | 251° |
| 2026-04-23 01:22 | 9.35344 | 60.39720 | 33847 ft | 485 kts | 251° |
| 2026-04-23 01:22 | 9.32894 | 60.33369 | 33846 ft | 485 kts | 251° |
| 2026-04-23 01:23 | 9.30443 | 60.27020 | 33848 ft | 485 kts | 251° |
| 2026-04-23 01:23 | 9.27985 | 60.20653 | 33847 ft | 485 kts | 251° |
| 2026-04-23 01:24 | 9.25528 | 60.14297 | 33847 ft | 485 kts | 251° |
| 2026-04-23 01:24 | 9.23068 | 60.07931 | 33847 ft | 485 kts | 251° |
| 2026-04-23 01:25 | 9.20492 | 60.01624 | 33845 ft | 487 kts | 246° |
| 2026-04-23 01:25 | 9.16939 | 59.95744 | 33841 ft | 490 kts | 236° |
| 2026-04-23 01:26 | 9.12806 | 59.90284 | 33841 ft | 490 kts | 235° |
| 2026-04-23 01:26 | 9.08652 | 59.84813 | 33849 ft | 489 kts | 236° |
| 2026-04-23 01:27 | 9.04545 | 59.79355 | 33846 ft | 489 kts | 236° |
| 2026-04-23 01:27 | 9.00425 | 59.73854 | 33840 ft | 489 kts | 236° |
| 2026-04-23 01:28 | 8.96317 | 59.68366 | 33859 ft | 489 kts | 236° |
| 2026-04-23 01:28 | 8.92213 | 59.62886 | 33845 ft | 489 kts | 236° |
| 2026-04-23 01:29 | 8.88094 | 59.57392 | 33844 ft | 490 kts | 236° |
| 2026-04-23 01:29 | 8.83989 | 59.51918 | 33842 ft | 490 kts | 236° |
| 2026-04-23 01:30 | 8.79869 | 59.46427 | 33861 ft | 489 kts | 236° |
| 2026-04-23 01:30 | 8.75758 | 59.40951 | 33840 ft | 489 kts | 236° |
| 2026-04-23 01:31 | 8.71644 | 59.35473 | 33840 ft | 488 kts | 236° |
| 2026-04-23 01:31 | 8.67529 | 59.29995 | 33838 ft | 488 kts | 236° |
| 2026-04-23 01:32 | 8.63417 | 59.24523 | 33856 ft | 488 kts | 236° |
| 2026-04-23 01:32 | 8.59321 | 59.19076 | 33855 ft | 488 kts | 236° |
| 2026-04-23 01:33 | 8.55199 | 59.13594 | 33860 ft | 489 kts | 236° |
| 2026-04-23 01:33 | 8.51077 | 59.08117 | 33840 ft | 489 kts | 236° |
| 2026-04-23 01:34 | 8.46943 | 59.02626 | 33840 ft | 490 kts | 236° |
| 2026-04-23 01:34 | 8.42842 | 58.97180 | 33859 ft | 490 kts | 236° |
| 2026-04-23 01:35 | 8.38704 | 58.91687 | 33853 ft | 490 kts | 236° |
| 2026-04-23 01:35 | 8.34587 | 58.86224 | 33854 ft | 490 kts | 236° |
| 2026-04-23 01:36 | 8.30442 | 58.80726 | 33835 ft | 490 kts | 236° |
| 2026-04-23 01:36 | 8.26315 | 58.75255 | 33849 ft | 490 kts | 236° |
| 2026-04-23 01:37 | 8.22200 | 58.69801 | 33855 ft | 489 kts | 236° |
| 2026-04-23 01:37 | 8.18085 | 58.64349 | 33853 ft | 489 kts | 236° |
| 2026-04-23 01:38 | 8.13950 | 58.58874 | 33856 ft | 489 kts | 236° |
| 2026-04-23 01:38 | 8.09818 | 58.53404 | 33846 ft | 489 kts | 236° |
| 2026-04-23 01:39 | 8.06383 | 58.48858 | 33847 ft | 489 kts | 236° |
| 2026-04-23 01:39 | 8.02259 | 58.43403 | 33855 ft | 489 kts | 236° |
| 2026-04-23 01:40 | 7.98121 | 58.37931 | 33850 ft | 490 kts | 236° |
| 2026-04-23 01:40 | 7.93976 | 58.32451 | 33851 ft | 490 kts | 236° |
| 2026-04-23 01:41 | 7.89836 | 58.26981 | 33838 ft | 491 kts | 236° |
| 2026-04-23 01:41 | 7.85691 | 58.21505 | 33854 ft | 491 kts | 236° |
| 2026-04-23 01:42 | 7.81540 | 58.16024 | 33845 ft | 491 kts | 236° |
| 2026-04-23 01:42 | 7.77403 | 58.10562 | 33853 ft | 491 kts | 236° |
| 2026-04-23 01:43 | 7.73245 | 58.05074 | 33854 ft | 492 kts | 236° |
| 2026-04-23 01:43 | 7.69101 | 57.99608 | 33851 ft | 492 kts | 236° |
| 2026-04-23 01:44 | 7.64929 | 57.94113 | 33850 ft | 493 kts | 236° |
| 2026-04-23 01:44 | 7.60747 | 57.88606 | 33854 ft | 493 kts | 236° |
| 2026-04-23 01:45 | 7.56573 | 57.83111 | 33852 ft | 494 kts | 236° |
| 2026-04-23 01:45 | 7.52392 | 57.77607 | 33849 ft | 494 kts | 236° |
| 2026-04-23 01:46 | 7.48219 | 57.72114 | 33850 ft | 494 kts | 236° |
| 2026-04-23 01:46 | 7.44049 | 57.66629 | 33851 ft | 494 kts | 236° |
| 2026-04-23 01:47 | 7.39859 | 57.61119 | 33842 ft | 495 kts | 236° |
| 2026-04-23 01:47 | 7.35668 | 57.55609 | 33845 ft | 495 kts | 236° |
| 2026-04-23 01:48 | 7.31474 | 57.50097 | 33847 ft | 495 kts | 236° |
| 2026-04-23 01:48 | 7.27278 | 57.44585 | 33848 ft | 496 kts | 236° |
| 2026-04-23 01:49 | 7.23091 | 57.39087 | 33850 ft | 496 kts | 236° |
| 2026-04-23 01:49 | 7.18893 | 57.33575 | 33847 ft | 496 kts | 235° |
| 2026-04-23 01:50 | 7.14673 | 57.28037 | 33847 ft | 496 kts | 235° |
| 2026-04-23 01:50 | 7.10486 | 57.22545 | 33853 ft | 496 kts | 235° |
| 2026-04-23 01:51 | 7.06279 | 57.17027 | 33852 ft | 496 kts | 235° |
| 2026-04-23 01:51 | 7.02086 | 57.11530 | 33846 ft | 496 kts | 235° |
| 2026-04-23 01:52 | 6.97873 | 57.06009 | 33852 ft | 496 kts | 235° |
| 2026-04-23 01:52 | 6.93671 | 57.00503 | 33849 ft | 495 kts | 235° |
| 2026-04-23 01:53 | 6.89490 | 56.95028 | 33848 ft | 495 kts | 235° |
| 2026-04-23 01:53 | 6.85294 | 56.89534 | 33850 ft | 495 kts | 235° |
| 2026-04-23 01:54 | 6.81092 | 56.84033 | 33851 ft | 495 kts | 235° |
| 2026-04-23 01:54 | 6.76881 | 56.78524 | 33849 ft | 495 kts | 235° |
| 2026-04-23 01:55 | 6.72712 | 56.73070 | 33848 ft | 494 kts | 235° |
| 2026-04-23 01:55 | 6.68517 | 56.67585 | 33847 ft | 494 kts | 235° |
| 2026-04-23 01:56 | 6.64318 | 56.62095 | 33849 ft | 494 kts | 235° |
| 2026-04-23 01:56 | 6.60123 | 56.56613 | 33849 ft | 494 kts | 234° |
| 2026-04-23 01:57 | 6.55913 | 56.51113 | 33850 ft | 494 kts | 234° |
| 2026-04-23 01:57 | 6.51707 | 56.45618 | 33851 ft | 494 kts | 234° |
| 2026-04-23 01:58 | 6.47529 | 56.40162 | 33846 ft | 494 kts | 234° |
| 2026-04-23 01:58 | 6.43325 | 56.34675 | 33850 ft | 494 kts | 234° |
| 2026-04-23 01:59 | 6.39136 | 56.29214 | 33849 ft | 494 kts | 234° |
| 2026-04-23 01:59 | 6.34935 | 56.23741 | 33850 ft | 494 kts | 234° |
| 2026-04-23 02:00 | 6.30730 | 56.18261 | 33845 ft | 494 kts | 234° |
| 2026-04-23 02:00 | 6.26536 | 56.12797 | 33852 ft | 494 kts | 234° |
| 2026-04-23 02:01 | 6.22326 | 56.07314 | 33853 ft | 494 kts | 234° |
| 2026-04-23 02:01 | 6.18153 | 56.01881 | 33852 ft | 493 kts | 234° |
| 2026-04-23 02:02 | 6.13943 | 55.96400 | 33851 ft | 493 kts | 234° |
| 2026-04-23 02:02 | 6.09747 | 55.90940 | 33852 ft | 493 kts | 234° |
| 2026-04-23 02:03 | 6.05547 | 55.85475 | 33854 ft | 493 kts | 234° |
| 2026-04-23 02:03 | 6.01359 | 55.80030 | 33852 ft | 493 kts | 234° |
| 2026-04-23 02:04 | 5.97170 | 55.74582 | 33850 ft | 493 kts | 234° |
| 2026-04-23 02:04 | 5.92970 | 55.69123 | 33853 ft | 493 kts | 234° |
| 2026-04-23 02:05 | 5.88762 | 55.63655 | 33850 ft | 493 kts | 234° |
| 2026-04-23 02:05 | 5.84569 | 55.58207 | 33849 ft | 493 kts | 234° |
| 2026-04-23 02:06 | 5.80361 | 55.52742 | 33854 ft | 493 kts | 234° |
| 2026-04-23 02:06 | 5.76164 | 55.47292 | 33855 ft | 493 kts | 233° |
| 2026-04-23 02:07 | 5.71961 | 55.41836 | 33857 ft | 493 kts | 233° |
| 2026-04-23 02:07 | 5.67764 | 55.36390 | 33857 ft | 493 kts | 233° |
| 2026-04-23 02:08 | 5.63573 | 55.30952 | 33857 ft | 493 kts | 233° |
| 2026-04-23 02:08 | 5.59366 | 55.25495 | 33852 ft | 493 kts | 233° |
| 2026-04-23 02:09 | 5.55164 | 55.20046 | 33859 ft | 493 kts | 233° |
| 2026-04-23 02:09 | 5.50941 | 55.14571 | 33862 ft | 494 kts | 233° |
| 2026-04-23 02:10 | 5.46727 | 55.09109 | 33861 ft | 494 kts | 233° |
| 2026-04-23 02:10 | 5.42541 | 55.03683 | 33860 ft | 494 kts | 233° |
| 2026-04-23 02:11 | 5.38324 | 54.98220 | 33863 ft | 494 kts | 233° |
| 2026-04-23 02:11 | 5.34125 | 54.92783 | 33860 ft | 494 kts | 233° |
| 2026-04-23 02:12 | 5.30598 | 54.88216 | 33859 ft | 494 kts | 233° |
| 2026-04-23 02:12 | 5.26384 | 54.82758 | 33857 ft | 495 kts | 233° |
| 2026-04-23 02:13 | 5.22163 | 54.77292 | 33863 ft | 495 kts | 233° |
| 2026-04-23 02:13 | 5.17925 | 54.71804 | 33861 ft | 496 kts | 233° |
| 2026-04-23 02:14 | 5.13712 | 54.66352 | 33862 ft | 496 kts | 233° |
| 2026-04-23 02:14 | 5.09498 | 54.60899 | 33863 ft | 496 kts | 233° |
| 2026-04-23 02:15 | 5.03167 | 54.52709 | 33863 ft | 495 kts | 233° |
| 2026-04-23 02:16 | 4.98941 | 54.47245 | 33864 ft | 495 kts | 233° |
| 2026-04-23 02:16 | 4.94710 | 54.41774 | 33853 ft | 495 kts | 233° |
| 2026-04-23 02:17 | 4.90485 | 54.36313 | 33879 ft | 496 kts | 233° |
| 2026-04-23 02:17 | 4.86252 | 54.30843 | 33862 ft | 497 kts | 233° |
| 2026-04-23 02:18 | 4.82019 | 54.25373 | 33864 ft | 498 kts | 233° |
| 2026-04-23 02:18 | 4.77778 | 54.19895 | 33860 ft | 498 kts | 233° |
| 2026-04-23 02:19 | 4.73516 | 54.14391 | 33856 ft | 497 kts | 233° |
| 2026-04-23 02:19 | 4.69271 | 54.08911 | 33877 ft | 496 kts | 233° |
| 2026-04-23 02:20 | 4.65062 | 54.03478 | 33862 ft | 495 kts | 233° |
| 2026-04-23 02:20 | 4.60838 | 53.98027 | 33857 ft | 495 kts | 233° |
| 2026-04-23 02:21 | 4.56605 | 53.92564 | 33862 ft | 496 kts | 233° |
| 2026-04-23 02:21 | 4.52356 | 53.87083 | 33860 ft | 496 kts | 233° |
| 2026-04-23 02:22 | 4.48122 | 53.81622 | 33876 ft | 497 kts | 233° |
| 2026-04-23 02:22 | 4.43895 | 53.76172 | 33877 ft | 497 kts | 233° |
| 2026-04-23 02:23 | 4.39647 | 53.70697 | 33863 ft | 497 kts | 233° |
| 2026-04-23 02:23 | 4.35420 | 53.65248 | 33866 ft | 496 kts | 233° |
| 2026-04-23 02:24 | 4.31171 | 53.59773 | 33865 ft | 496 kts | 233° |
| 2026-04-23 02:24 | 4.26937 | 53.54317 | 33860 ft | 496 kts | 233° |
| 2026-04-23 02:25 | 4.22692 | 53.48848 | 33860 ft | 497 kts | 233° |
| 2026-04-23 02:25 | 4.18431 | 53.43360 | 33860 ft | 498 kts | 233° |
| 2026-04-23 02:26 | 4.14168 | 53.37871 | 33862 ft | 499 kts | 233° |
| 2026-04-23 02:26 | 4.09899 | 53.32376 | 33876 ft | 499 kts | 233° |
| 2026-04-23 02:27 | 4.05652 | 53.26909 | 33880 ft | 499 kts | 233° |
| 2026-04-23 02:27 | 4.01378 | 53.21411 | 33864 ft | 499 kts | 233° |
| 2026-04-23 02:28 | 3.97135 | 53.15951 | 33877 ft | 497 kts | 233° |
| 2026-04-23 02:28 | 3.92875 | 53.10471 | 33877 ft | 498 kts | 233° |
| 2026-04-23 02:29 | 3.88604 | 53.04978 | 33862 ft | 499 kts | 233° |
| 2026-04-23 02:29 | 3.84351 | 52.99508 | 33883 ft | 500 kts | 233° |
| 2026-04-23 02:30 | 3.80060 | 52.93992 | 33863 ft | 499 kts | 233° |
| 2026-04-23 02:30 | 3.75805 | 52.88522 | 33863 ft | 499 kts | 233° |
| 2026-04-23 02:31 | 3.71546 | 52.83049 | 33863 ft | 498 kts | 233° |
| 2026-04-23 02:31 | 3.67275 | 52.77560 | 33879 ft | 498 kts | 233° |
| 2026-04-23 02:32 | 3.63040 | 52.72119 | 33858 ft | 498 kts | 233° |
| 2026-04-23 02:32 | 3.58772 | 52.66635 | 33865 ft | 499 kts | 233° |
| 2026-04-23 02:33 | 3.54487 | 52.61132 | 33867 ft | 501 kts | 233° |
| 2026-04-23 02:33 | 3.50212 | 52.55641 | 33885 ft | 502 kts | 233° |
| 2026-04-23 02:34 | 3.45888 | 52.50089 | 33887 ft | 502 kts | 233° |
| 2026-04-23 02:34 | 3.41601 | 52.44584 | 33867 ft | 502 kts | 233° |
| 2026-04-23 02:35 | 3.37307 | 52.39074 | 33864 ft | 501 kts | 233° |
| 2026-04-23 02:35 | 3.33047 | 52.33607 | 33866 ft | 500 kts | 233° |
| 2026-04-23 02:36 | 3.28763 | 52.28108 | 33884 ft | 499 kts | 233° |
| 2026-04-23 02:36 | 3.24493 | 52.22626 | 33867 ft | 498 kts | 233° |
| 2026-04-23 02:37 | 3.20244 | 52.17172 | 33872 ft | 497 kts | 233° |
| 2026-04-23 02:37 | 3.15989 | 52.11711 | 33869 ft | 497 kts | 233° |
| 2026-04-23 02:38 | 3.11728 | 52.06243 | 33886 ft | 497 kts | 233° |
| 2026-04-23 02:38 | 3.07464 | 52.00772 | 33883 ft | 497 kts | 233° |
| 2026-04-23 02:39 | 3.03235 | 51.95348 | 33873 ft | 497 kts | 233° |
| 2026-04-23 02:39 | 2.98974 | 51.89882 | 33864 ft | 497 kts | 233° |
| 2026-04-23 02:40 | 2.94721 | 51.84428 | 33885 ft | 499 kts | 233° |
| 2026-04-23 02:40 | 2.90455 | 51.78957 | 33882 ft | 500 kts | 233° |
| 2026-04-23 02:41 | 2.86146 | 51.73434 | 33862 ft | 501 kts | 233° |
| 2026-04-23 02:41 | 2.81883 | 51.67969 | 33877 ft | 500 kts | 233° |
| 2026-04-23 02:42 | 2.77596 | 51.62474 | 33881 ft | 500 kts | 233° |
| 2026-04-23 02:42 | 2.73330 | 51.57007 | 33884 ft | 499 kts | 233° |
| 2026-04-23 02:43 | 2.69038 | 51.51508 | 33859 ft | 498 kts | 233° |
| 2026-04-23 02:43 | 2.64772 | 51.46041 | 33878 ft | 498 kts | 233° |
| 2026-04-23 02:44 | 2.60504 | 51.40573 | 33876 ft | 499 kts | 233° |
| 2026-04-23 02:44 | 2.56243 | 51.35116 | 33859 ft | 499 kts | 233° |
| 2026-04-23 02:45 | 2.51959 | 51.29628 | 33878 ft | 499 kts | 233° |
| 2026-04-23 02:45 | 2.47703 | 51.24179 | 33876 ft | 499 kts | 233° |
| 2026-04-23 02:46 | 2.44151 | 51.19630 | 33860 ft | 499 kts | 233° |
| 2026-04-23 02:46 | 2.39866 | 51.14144 | 33876 ft | 498 kts | 233° |
| 2026-04-23 02:47 | 2.35614 | 51.08700 | 33866 ft | 498 kts | 233° |
| 2026-04-23 02:47 | 2.31326 | 51.03211 | 33869 ft | 499 kts | 233° |
| 2026-04-23 02:48 | 2.27050 | 50.97738 | 33868 ft | 500 kts | 233° |
| 2026-04-23 02:48 | 2.22752 | 50.92237 | 33866 ft | 500 kts | 233° |
| 2026-04-23 02:49 | 2.18475 | 50.86765 | 33867 ft | 501 kts | 233° |
| 2026-04-23 02:49 | 2.14179 | 50.81267 | 34215 ft | 503 kts | 233° |
| 2026-04-23 02:49 | 2.12029 | 50.78516 | 34738 ft | 499 kts | 233° |
| 2026-04-23 02:50 | 2.09905 | 50.75800 | 35260 ft | 495 kts | 233° |
| 2026-04-23 02:50 | 2.07796 | 50.73102 | 35759 ft | 493 kts | 233° |
| 2026-04-23 02:50 | 2.05660 | 50.70368 | 35872 ft | 497 kts | 233° |
| 2026-04-23 02:51 | 2.01414 | 50.64936 | 35864 ft | 495 kts | 233° |
| 2026-04-23 02:51 | 1.97204 | 50.59551 | 35861 ft | 490 kts | 234° |
| 2026-04-23 02:52 | 1.93019 | 50.54196 | 35867 ft | 488 kts | 234° |
| 2026-04-23 02:52 | 1.88815 | 50.48822 | 35867 ft | 488 kts | 233° |
| 2026-04-23 02:53 | 1.84617 | 50.43464 | 35865 ft | 489 kts | 233° |
| 2026-04-23 02:53 | 1.80435 | 50.38125 | 35866 ft | 490 kts | 233° |
| 2026-04-23 02:54 | 1.76206 | 50.32726 | 35862 ft | 491 kts | 233° |
| 2026-04-23 02:54 | 1.72004 | 50.27360 | 35865 ft | 492 kts | 233° |
| 2026-04-23 02:55 | 1.67763 | 50.21945 | 35864 ft | 493 kts | 233° |
| 2026-04-23 02:55 | 1.63552 | 50.16568 | 35864 ft | 494 kts | 233° |
| 2026-04-23 02:56 | 1.59319 | 50.11165 | 35858 ft | 494 kts | 233° |
| 2026-04-23 02:56 | 1.55087 | 50.05764 | 35860 ft | 493 kts | 233° |
| 2026-04-23 02:57 | 1.50849 | 50.00353 | 35860 ft | 493 kts | 233° |
| 2026-04-23 02:57 | 1.46637 | 49.94977 | 35861 ft | 492 kts | 233° |
| 2026-04-23 02:58 | 1.42405 | 49.89577 | 35859 ft | 492 kts | 234° |
| 2026-04-23 02:58 | 1.38194 | 49.84202 | 35861 ft | 492 kts | 234° |
| 2026-04-23 02:59 | 1.33968 | 49.78809 | 35860 ft | 493 kts | 234° |
| 2026-04-23 02:59 | 1.29739 | 49.73414 | 35859 ft | 493 kts | 234° |
| 2026-04-23 03:00 | 1.25494 | 49.67997 | 35861 ft | 493 kts | 234° |
| 2026-04-23 03:00 | 1.21285 | 49.62627 | 35864 ft | 493 kts | 234° |
| 2026-04-23 03:01 | 1.17053 | 49.57228 | 35864 ft | 493 kts | 234° |
| 2026-04-23 03:01 | 1.12810 | 49.51814 | 35860 ft | 493 kts | 234° |
| 2026-04-23 03:02 | 1.08581 | 49.46419 | 35861 ft | 494 kts | 234° |
| 2026-04-23 03:02 | 1.04345 | 49.41016 | 35857 ft | 494 kts | 234° |
| 2026-04-23 03:03 | 1.00123 | 49.35629 | 35856 ft | 494 kts | 234° |
| 2026-04-23 03:03 | 0.95869 | 49.30204 | 35858 ft | 494 kts | 233° |
| 2026-04-23 03:04 | 0.91630 | 49.24794 | 35857 ft | 494 kts | 233° |
| 2026-04-23 03:04 | 0.87408 | 49.19410 | 35857 ft | 494 kts | 233° |
| 2026-04-23 03:05 | 0.83186 | 49.14025 | 35859 ft | 494 kts | 233° |
| 2026-04-23 03:05 | 0.78950 | 49.08622 | 35857 ft | 494 kts | 233° |
| 2026-04-23 03:06 | 0.74706 | 49.03206 | 35858 ft | 494 kts | 233° |
| 2026-04-23 03:06 | 0.70476 | 48.97809 | 35861 ft | 494 kts | 233° |
| 2026-04-23 03:07 | 0.66243 | 48.92407 | 35860 ft | 494 kts | 233° |
| 2026-04-23 03:07 | 0.62019 | 48.87018 | 35860 ft | 494 kts | 233° |
| 2026-04-23 03:08 | 0.57785 | 48.81615 | 35860 ft | 493 kts | 233° |
| 2026-04-23 03:08 | 0.53545 | 48.76205 | 35860 ft | 494 kts | 233° |
| 2026-04-23 03:09 | 0.49296 | 48.70785 | 35861 ft | 494 kts | 233° |
| 2026-04-23 03:09 | 0.45080 | 48.65406 | 35860 ft | 494 kts | 233° |
| 2026-04-23 03:10 | 0.40845 | 48.60002 | 35861 ft | 494 kts | 233° |
| 2026-04-23 03:10 | 0.36599 | 48.54585 | 35860 ft | 494 kts | 233° |
| 2026-04-23 03:11 | 0.32344 | 48.49157 | 35859 ft | 494 kts | 233° |
| 2026-04-23 03:11 | 0.28117 | 48.43763 | 35861 ft | 494 kts | 233° |
| 2026-04-23 03:12 | 0.23894 | 48.38374 | 35861 ft | 493 kts | 233° |
| 2026-04-23 03:12 | 0.19644 | 48.32952 | 35863 ft | 493 kts | 233° |
| 2026-04-23 03:13 | 0.15429 | 48.27577 | 35862 ft | 493 kts | 233° |
| 2026-04-23 03:13 | 0.11195 | 48.22178 | 35862 ft | 493 kts | 233° |
| 2026-04-23 03:14 | 0.06965 | 48.16783 | 35861 ft | 492 kts | 233° |
| 2026-04-23 03:14 | 0.02755 | 48.11412 | 35863 ft | 492 kts | 233° |
| 2026-04-23 03:15 | -0.01491 | 48.05995 | 35861 ft | 492 kts | 233° |
| 2026-04-23 03:15 | -0.05679 | 48.00651 | 35864 ft | 492 kts | 233° |
| 2026-04-23 03:16 | -0.09913 | 47.95250 | 35862 ft | 491 kts | 233° |
| 2026-04-23 03:16 | -0.16234 | 47.87185 | 35863 ft | 491 kts | 233° |
| 2026-04-23 03:17 | -0.20422 | 47.81843 | 35863 ft | 491 kts | 233° |
| 2026-04-23 03:17 | -0.24636 | 47.76466 | 35864 ft | 490 kts | 233° |
| 2026-04-23 03:18 | -0.28857 | 47.71080 | 35865 ft | 490 kts | 233° |
| 2026-04-23 03:18 | -0.33041 | 47.65742 | 35866 ft | 490 kts | 233° |
| 2026-04-23 03:19 | -0.37252 | 47.60369 | 35865 ft | 490 kts | 233° |
| 2026-04-23 03:19 | -0.41444 | 47.55020 | 35863 ft | 490 kts | 233° |
| 2026-04-23 03:20 | -0.45636 | 47.49672 | 35866 ft | 490 kts | 233° |
| 2026-04-23 03:20 | -0.49846 | 47.44300 | 35866 ft | 490 kts | 233° |
| 2026-04-23 03:21 | -0.54060 | 47.38923 | 35866 ft | 490 kts | 233° |
| 2026-04-23 03:21 | -0.58243 | 47.33585 | 35865 ft | 490 kts | 233° |
| 2026-04-23 03:22 | -0.62446 | 47.28222 | 35867 ft | 490 kts | 233° |
| 2026-04-23 03:22 | -0.65969 | 47.23726 | 35866 ft | 490 kts | 233° |
| 2026-04-23 03:23 | -0.70163 | 47.18374 | 35866 ft | 490 kts | 233° |
| 2026-04-23 03:23 | -0.74377 | 47.12996 | 35866 ft | 490 kts | 233° |
| 2026-04-23 03:24 | -0.78584 | 47.07628 | 35868 ft | 490 kts | 233° |
| 2026-04-23 03:24 | -0.82787 | 47.02263 | 35868 ft | 490 kts | 233° |
| 2026-04-23 03:25 | -0.87003 | 46.96882 | 35873 ft | 490 kts | 233° |
| 2026-04-23 03:25 | -0.91194 | 46.91533 | 35869 ft | 490 kts | 233° |
| 2026-04-23 03:26 | -0.95415 | 46.86144 | 35868 ft | 489 kts | 233° |
| 2026-04-23 03:26 | -0.99587 | 46.80819 | 35868 ft | 489 kts | 233° |
| 2026-04-23 03:27 | -1.03793 | 46.75448 | 35868 ft | 489 kts | 233° |
| 2026-04-23 03:27 | -1.07965 | 46.70121 | 35869 ft | 489 kts | 233° |
| 2026-04-23 03:28 | -1.12159 | 46.64766 | 35871 ft | 489 kts | 233° |
| 2026-04-23 03:28 | -1.16379 | 46.59385 | 35871 ft | 489 kts | 233° |
| 2026-04-23 03:29 | -1.20553 | 46.54067 | 35873 ft | 489 kts | 233° |
| 2026-04-23 03:29 | -1.24777 | 46.48683 | 35874 ft | 489 kts | 233° |
| 2026-04-23 03:30 | -1.28967 | 46.43341 | 35873 ft | 489 kts | 233° |
| 2026-04-23 03:30 | -1.33178 | 46.37970 | 35874 ft | 489 kts | 233° |
| 2026-04-23 03:31 | -1.37348 | 46.32652 | 35874 ft | 489 kts | 233° |
| 2026-04-23 03:31 | -1.41564 | 46.27276 | 35874 ft | 489 kts | 233° |
| 2026-04-23 03:32 | -1.45764 | 46.21919 | 35874 ft | 489 kts | 233° |
| 2026-04-23 03:32 | -1.49955 | 46.16573 | 35876 ft | 489 kts | 233° |
| 2026-04-23 03:33 | -1.54170 | 46.11197 | 35877 ft | 489 kts | 233° |
| 2026-04-23 03:33 | -1.58359 | 46.05852 | 35879 ft | 489 kts | 233° |
| 2026-04-23 03:34 | -1.62541 | 46.00517 | 35879 ft | 489 kts | 233° |
| 2026-04-23 03:34 | -1.66737 | 45.95164 | 35882 ft | 489 kts | 233° |
| 2026-04-23 03:35 | -1.70928 | 45.89816 | 35878 ft | 488 kts | 233° |
| 2026-04-23 03:35 | -1.75132 | 45.84450 | 35878 ft | 488 kts | 233° |
| 2026-04-23 03:36 | -1.79324 | 45.79100 | 35879 ft | 488 kts | 233° |
| 2026-04-23 03:36 | -1.83503 | 45.73766 | 35882 ft | 488 kts | 233° |
| 2026-04-23 03:37 | -1.87693 | 45.68417 | 35883 ft | 487 kts | 233° |
| 2026-04-23 03:37 | -1.91874 | 45.63080 | 35883 ft | 487 kts | 233° |
| 2026-04-23 03:38 | -1.96042 | 45.57757 | 35881 ft | 487 kts | 233° |
| 2026-04-23 03:38 | -2.00222 | 45.52419 | 35884 ft | 486 kts | 233° |
| 2026-04-23 03:39 | -2.04361 | 45.47115 | 35888 ft | 485 kts | 233° |
| 2026-04-23 03:39 | -2.08505 | 45.41788 | 35888 ft | 485 kts | 233° |
| 2026-04-23 03:40 | -2.12642 | 45.36471 | 35888 ft | 485 kts | 233° |
| 2026-04-23 03:40 | -2.16785 | 45.31146 | 35883 ft | 485 kts | 233° |
| 2026-04-23 03:41 | -2.20931 | 45.25818 | 35886 ft | 485 kts | 233° |
| 2026-04-23 03:41 | -2.25078 | 45.20489 | 35888 ft | 485 kts | 233° |
| 2026-04-23 03:42 | -2.29221 | 45.15165 | 35893 ft | 485 kts | 233° |
| 2026-04-23 03:42 | -2.33352 | 45.09855 | 35891 ft | 484 kts | 233° |
| 2026-04-23 03:43 | -2.37499 | 45.04524 | 35887 ft | 484 kts | 233° |
| 2026-04-23 03:43 | -2.41636 | 44.99205 | 35888 ft | 484 kts | 233° |
| 2026-04-23 03:44 | -2.45757 | 44.93905 | 35894 ft | 484 kts | 233° |
| 2026-04-23 03:44 | -2.49907 | 44.88569 | 35894 ft | 484 kts | 233° |
| 2026-04-23 03:45 | -2.54040 | 44.83253 | 35893 ft | 484 kts | 233° |
| 2026-04-23 03:45 | -2.58181 | 44.77928 | 35894 ft | 484 kts | 233° |
| 2026-04-23 03:46 | -2.62309 | 44.72617 | 35892 ft | 484 kts | 233° |
| 2026-04-23 03:46 | -2.66455 | 44.67283 | 35893 ft | 484 kts | 233° |
| 2026-04-23 03:47 | -2.70587 | 44.61967 | 35894 ft | 484 kts | 233° |
| 2026-04-23 03:47 | -2.74709 | 44.56662 | 35898 ft | 484 kts | 233° |
| 2026-04-23 03:48 | -2.78846 | 44.51337 | 35892 ft | 484 kts | 233° |
| 2026-04-23 03:48 | -2.82962 | 44.46040 | 35891 ft | 484 kts | 233° |
| 2026-04-23 03:49 | -2.87083 | 44.40734 | 35895 ft | 483 kts | 233° |
| 2026-04-23 03:49 | -2.91227 | 44.35399 | 35897 ft | 483 kts | 233° |
| 2026-04-23 03:50 | -2.95332 | 44.30112 | 35901 ft | 483 kts | 233° |
| 2026-04-23 03:50 | -2.99457 | 44.24799 | 35898 ft | 483 kts | 233° |
| 2026-04-23 03:51 | -3.03583 | 44.19484 | 35900 ft | 483 kts | 233° |
| 2026-04-23 03:51 | -3.07703 | 44.14175 | 35901 ft | 483 kts | 233° |
| 2026-04-23 03:52 | -3.11829 | 44.08859 | 35902 ft | 483 kts | 233° |
| 2026-04-23 03:52 | -3.15951 | 44.03546 | 35904 ft | 483 kts | 233° |
| 2026-04-23 03:53 | -3.20084 | 43.98220 | 35903 ft | 483 kts | 233° |
| 2026-04-23 03:53 | -3.24189 | 43.92941 | 35902 ft | 482 kts | 233° |
| 2026-04-23 03:54 | -3.28326 | 43.87620 | 35903 ft | 482 kts | 232° |
| 2026-04-23 03:54 | -3.31742 | 43.83225 | 35910 ft | 482 kts | 232° |
| 2026-04-23 03:55 | -3.36543 | 43.77045 | 35907 ft | 482 kts | 233° |
| 2026-04-23 03:55 | -3.39998 | 43.72596 | 35902 ft | 482 kts | 233° |
| 2026-04-23 03:56 | -3.44094 | 43.67322 | 35901 ft | 481 kts | 232° |
| 2026-04-23 03:56 | -3.48192 | 43.62044 | 35907 ft | 481 kts | 233° |
| 2026-04-23 03:57 | -3.52314 | 43.56735 | 35909 ft | 481 kts | 232° |
| 2026-04-23 03:57 | -3.56427 | 43.51436 | 35913 ft | 481 kts | 233° |
| 2026-04-23 03:58 | -3.60532 | 43.46146 | 35910 ft | 481 kts | 233° |
| 2026-04-23 03:58 | -3.64628 | 43.40868 | 35909 ft | 483 kts | 232° |
| 2026-04-23 03:59 | -3.68751 | 43.35553 | 35914 ft | 483 kts | 233° |
| 2026-04-23 03:59 | -3.72892 | 43.30215 | 35912 ft | 483 kts | 233° |
| 2026-04-23 04:00 | -3.76997 | 43.24922 | 35916 ft | 482 kts | 233° |
| 2026-04-23 04:00 | -3.81114 | 43.19612 | 35914 ft | 482 kts | 233° |
| 2026-04-23 04:01 | -3.85223 | 43.14312 | 35908 ft | 482 kts | 233° |
| 2026-04-23 04:01 | -3.89328 | 43.09016 | 35909 ft | 482 kts | 233° |
| 2026-04-23 04:02 | -3.93438 | 43.03712 | 35913 ft | 482 kts | 233° |
| 2026-04-23 04:02 | -3.97569 | 42.98379 | 35915 ft | 482 kts | 233° |
| 2026-04-23 04:03 | -4.01644 | 42.93060 | 35903 ft | 479 kts | 237° |
| 2026-04-23 04:03 | -4.03189 | 42.90141 | 35902 ft | 478 kts | 249° |
| 2026-04-23 04:03 | -4.04151 | 42.86964 | 35913 ft | 479 kts | 258° |
| 2026-04-23 04:04 | -4.04587 | 42.83618 | 35913 ft | 481 kts | 269° |
| 2026-04-23 04:04 | -4.04511 | 42.80302 | 35930 ft | 480 kts | 272° |
| 2026-04-23 04:04 | -4.04222 | 42.73585 | 35918 ft | 483 kts | 272° |
| 2026-04-23 04:05 | -4.03960 | 42.66873 | 35914 ft | 478 kts | 272° |
| 2026-04-23 04:05 | -4.03749 | 42.60257 | 35916 ft | 479 kts | 271° |
| 2026-04-23 04:06 | -4.03554 | 42.53576 | 35918 ft | 479 kts | 271° |
| 2026-04-23 04:06 | -4.03361 | 42.46870 | 35910 ft | 479 kts | 271° |
| 2026-04-23 04:07 | -4.03167 | 42.40234 | 35923 ft | 478 kts | 271° |
| 2026-04-23 04:07 | -4.02971 | 42.33580 | 35912 ft | 479 kts | 271° |
| 2026-04-23 04:08 | -4.02772 | 42.26872 | 35921 ft | 480 kts | 271° |
| 2026-04-23 04:08 | -4.02575 | 42.20203 | 35912 ft | 481 kts | 271° |
| 2026-04-23 04:09 | -4.02374 | 42.13486 | 35928 ft | 481 kts | 271° |
| 2026-04-23 04:09 | -4.02176 | 42.06817 | 35919 ft | 481 kts | 271° |
| 2026-04-23 04:10 | -4.01975 | 42.00107 | 35926 ft | 481 kts | 271° |
| 2026-04-23 04:10 | -4.01773 | 41.93385 | 35921 ft | 481 kts | 271° |
| 2026-04-23 04:11 | -4.01572 | 41.86698 | 35927 ft | 481 kts | 271° |
| 2026-04-23 04:11 | -4.01371 | 41.80034 | 35922 ft | 481 kts | 271° |
| 2026-04-23 04:12 | -4.01167 | 41.73312 | 35925 ft | 481 kts | 271° |
| 2026-04-23 04:12 | -4.00964 | 41.66605 | 35921 ft | 482 kts | 271° |
| 2026-04-23 04:13 | -4.00759 | 41.59879 | 35929 ft | 482 kts | 271° |
| 2026-04-23 04:13 | -4.00555 | 41.53173 | 35144 ft | 493 kts | 271° |
| 2026-04-23 04:14 | -4.00450 | 41.49729 | 34400 ft | 491 kts | 271° |
| 2026-04-23 04:14 | -4.00345 | 41.46316 | 33513 ft | 492 kts | 271° |
| 2026-04-23 04:14 | -4.00241 | 41.42902 | 32598 ft | 492 kts | 271° |
| 2026-04-23 04:14 | -4.00136 | 41.39477 | 31704 ft | 492 kts | 271° |
| 2026-04-23 04:15 | -4.00030 | 41.36027 | 30786 ft | 493 kts | 271° |
| 2026-04-23 04:15 | -3.99925 | 41.32605 | 30073 ft | 492 kts | 271° |
| 2026-04-23 04:15 | -3.99715 | 41.25805 | 28705 ft | 483 kts | 271° |
| 2026-04-23 04:16 | -3.99612 | 41.22470 | 28089 ft | 478 kts | 271° |
| 2026-04-23 04:16 | -3.99508 | 41.19118 | 27488 ft | 473 kts | 271° |
| 2026-04-23 04:16 | -3.99407 | 41.15852 | 26915 ft | 471 kts | 271° |
| 2026-04-23 04:16 | -3.99305 | 41.12542 | 26342 ft | 472 kts | 271° |
| 2026-04-23 04:17 | -3.99206 | 41.09256 | 25762 ft | 477 kts | 271° |
| 2026-04-23 04:17 | -3.99111 | 41.05929 | 25165 ft | 478 kts | 271° |
| 2026-04-23 04:17 | -3.99019 | 41.02638 | 24569 ft | 474 kts | 271° |
| 2026-04-23 04:17 | -3.98926 | 40.99314 | 23984 ft | 470 kts | 271° |
| 2026-04-23 04:18 | -3.98835 | 40.96090 | 23403 ft | 466 kts | 271° |
| 2026-04-23 04:18 | -3.98743 | 40.92860 | 22763 ft | 462 kts | 271° |
| 2026-04-23 04:18 | -3.98650 | 40.89643 | 22182 ft | 457 kts | 271° |
| 2026-04-23 04:18 | -3.98560 | 40.86496 | 21615 ft | 452 kts | 271° |
| 2026-04-23 04:19 | -3.98470 | 40.83368 | 21073 ft | 447 kts | 271° |
| 2026-04-23 04:19 | -3.98381 | 40.80286 | 20531 ft | 443 kts | 271° |
| 2026-04-23 04:19 | -3.98292 | 40.77176 | 19992 ft | 440 kts | 271° |
| 2026-04-23 04:19 | -3.98204 | 40.74124 | 19464 ft | 437 kts | 271° |
| 2026-04-23 04:20 | -3.98117 | 40.71104 | 18934 ft | 434 kts | 271° |
| 2026-04-23 04:20 | -3.98030 | 40.68094 | 18405 ft | 432 kts | 271° |
| 2026-04-23 04:20 | -3.97943 | 40.65106 | 17827 ft | 429 kts | 271° |
| 2026-04-23 04:20 | -3.97810 | 40.62112 | 17272 ft | 426 kts | 274° |
| 2026-04-23 04:21 | -3.97516 | 40.59186 | 16748 ft | 423 kts | 276° |
| 2026-04-23 04:21 | -3.97140 | 40.56265 | 16221 ft | 420 kts | 277° |
| 2026-04-23 04:21 | -3.96748 | 40.53365 | 15715 ft | 415 kts | 277° |
| 2026-04-23 04:21 | -3.96367 | 40.50522 | 15205 ft | 412 kts | 276° |
| 2026-04-23 04:22 | -3.96000 | 40.47693 | 14710 ft | 409 kts | 275° |
| 2026-04-23 04:22 | -3.95647 | 40.44889 | 14211 ft | 407 kts | 275° |
| 2026-04-23 04:22 | -3.95298 | 40.42058 | 13694 ft | 405 kts | 276° |
| 2026-04-23 04:22 | -3.94957 | 40.39255 | 13143 ft | 402 kts | 275° |
| 2026-04-23 04:23 | -3.94621 | 40.36478 | 12623 ft | 398 kts | 275° |
| 2026-04-23 04:23 | -3.94293 | 40.33762 | 12135 ft | 395 kts | 275° |
| 2026-04-23 04:23 | -3.93961 | 40.31013 | 11643 ft | 392 kts | 275° |
| 2026-04-23 04:23 | -3.93631 | 40.28295 | 11246 ft | 390 kts | 275° |
| 2026-04-23 04:24 | -3.93310 | 40.25637 | 10935 ft | 380 kts | 275° |
| 2026-04-23 04:24 | -3.92997 | 40.23061 | 10768 ft | 370 kts | 275° |
| 2026-04-23 04:24 | -3.92689 | 40.20519 | 10610 ft | 360 kts | 275° |
| 2026-04-23 04:24 | -3.92395 | 40.18103 | 10451 ft | 344 kts | 275° |
| 2026-04-23 04:25 | -3.92113 | 40.15790 | 10297 ft | 324 kts | 275° |
| 2026-04-23 04:25 | -3.91847 | 40.13596 | 10182 ft | 313 kts | 275° |
| 2026-04-23 04:25 | -3.91585 | 40.11433 | 10057 ft | 308 kts | 275° |
| 2026-04-23 04:25 | -3.91333 | 40.09342 | 9902 ft | 303 kts | 274° |
| 2026-04-23 04:26 | -3.91079 | 40.07236 | 9572 ft | 305 kts | 274° |
| 2026-04-23 04:26 | -3.90826 | 40.05130 | 9249 ft | 307 kts | 274° |
| 2026-04-23 04:26 | -3.90567 | 40.02996 | 8910 ft | 303 kts | 274° |
| 2026-04-23 04:26 | -3.90317 | 40.00937 | 8583 ft | 295 kts | 274° |
| 2026-04-23 04:27 | -3.90068 | 39.98883 | 8264 ft | 297 kts | 274° |
| 2026-04-23 04:27 | -3.89819 | 39.96826 | 7967 ft | 299 kts | 274° |
| 2026-04-23 04:27 | -3.89566 | 39.94736 | 7645 ft | 302 kts | 274° |
| 2026-04-23 04:28 | -3.89145 | 39.91267 | 7156 ft | 298 kts | 274° |
| 2026-04-23 04:28 | -3.88896 | 39.89228 | 6802 ft | 291 kts | 273° |
| 2026-04-23 04:28 | -3.88658 | 39.87284 | 6514 ft | 275 kts | 273° |
| 2026-04-23 04:28 | -3.88429 | 39.85400 | 6192 ft | 268 kts | 273° |
| 2026-04-23 04:29 | -3.88207 | 39.83581 | 6032 ft | 257 kts | 273° |
| 2026-04-23 04:29 | -3.87995 | 39.81852 | 5909 ft | 244 kts | 272° |
| 2026-04-23 04:29 | -3.87788 | 39.80181 | 5673 ft | 235 kts | 275° |
| 2026-04-23 04:29 | -3.87258 | 39.78672 | 5383 ft | 232 kts | 294° |
| 2026-04-23 04:30 | -3.86448 | 39.77275 | 5114 ft | 227 kts | 296° |
| 2026-04-23 04:30 | -3.85655 | 39.75936 | 4897 ft | 226 kts | 295° |
| 2026-04-23 04:30 | -3.84854 | 39.74556 | 4665 ft | 228 kts | 295° |
| 2026-04-23 04:30 | -3.84080 | 39.73203 | 4382 ft | 220 kts | 291° |
| 2026-04-23 04:31 | -3.83764 | 39.71796 | 4106 ft | 195 kts | 254° |
| 2026-04-23 04:31 | -3.84252 | 39.70616 | 3924 ft | 184 kts | 230° |
| 2026-04-23 04:31 | -3.85112 | 39.69682 | 3690 ft | 183 kts | 210° |
| 2026-04-23 04:31 | -3.86219 | 39.69053 | 3463 ft | 182 kts | 205° |
| 2026-04-23 04:32 | -3.87311 | 39.68444 | 3219 ft | 179 kts | 204° |
| 2026-04-23 04:32 | -3.88409 | 39.67867 | 2973 ft | 174 kts | 205° |
| 2026-04-23 04:32 | -3.89466 | 39.67291 | 2750 ft | 173 kts | 205° |
| 2026-04-23 04:32 | -3.90523 | 39.66702 | 2546 ft | 176 kts | 206° |
| 2026-04-23 04:33 | -3.91592 | 39.66103 | 2334 ft | 173 kts | 207° |
| 2026-04-23 04:33 | -3.92619 | 39.65525 | 2081 ft | 165 kts | 207° |
| 2026-04-23 04:33 | -3.93574 | 39.64988 | 1905 ft | 155 kts | 208° |
| 2026-04-23 04:33 | -3.94538 | 39.64447 | 1672 ft | 154 kts | 208° |
| 2026-04-23 04:34 | -3.95428 | 39.63946 | 1447 ft | 138 kts | 208° |
| 2026-04-23 04:34 | -3.96230 | 39.63496 | 1307 ft | 133 kts | 209° |
| 2026-04-23 04:34 | -3.97046 | 39.63037 | 1141 ft | 137 kts | 207° |
| 2026-04-23 04:34 | -3.97904 | 39.62556 | 966 ft | 143 kts | 210° |
| 2026-04-23 04:35 | -3.98768 | 39.62070 | 773 ft | 144 kts | 210° |
| 2026-04-23 04:35 | -3.99641 | 39.61579 | 619 ft | 145 kts | 210° |
| 2026-04-23 04:35 | -4.00533 | 39.61082 | 420 ft | 143 kts | 210° |
| 2026-04-23 04:35 | -4.01391 | 39.60600 | 242 ft | 143 kts | 210° |
| 2026-04-23 04:36 | -4.02205 | 39.60142 | 219 ft | 122 kts | 206° |
| 2026-04-23 04:36 | -4.02819 | 39.59805 | 219 ft | 77 kts | 210° |
| 2026-04-23 04:36 | -4.03151 | 39.59617 | 221 ft | 33 kts | 209° |
| 2026-04-23 04:36 | -4.03332 | 39.59516 | 219 ft | 30 kts | 209° |
| 2026-04-23 04:37 | -4.03477 | 39.59437 | 215 ft | 18 kts | 193° |
| 2026-04-23 04:37 | -4.03588 | 39.59487 | 215 ft | 17 kts | 146° |
| 2026-04-23 04:37 | -4.03639 | 39.59531 | 220 ft | 6 kts | 104° |
| 2026-04-23 04:37 | -4.03605 | 39.59561 | 213 ft | 7 kts | 28° |
| 2026-04-23 04:38 | -4.03555 | 39.59588 | 219 ft | 9 kts | 28° |
| 2026-04-23 04:38 | -4.03497 | 39.59620 | 218 ft | 10 kts | 30° |
| 2026-04-23 04:38 | -4.03463 | 39.59640 | 218 ft | 1 kts | 30° |
| 2026-04-23 04:38 | -4.03450 | 39.59648 | 220 ft | 3 kts | 30° |
| 2026-04-23 04:39 | -4.03427 | 39.59661 | 219 ft | 5 kts | 30° |
| 2026-04-23 04:39 | -4.03394 | 39.59680 | 219 ft | 6 kts | 30° |
| 2026-04-23 04:39 | -4.03353 | 39.59704 | 221 ft | 8 kts | 30° |
| 2026-04-23 04:39 | -4.03303 | 39.59734 | 218 ft | 9 kts | 29° |
| 2026-04-23 04:40 | -4.03243 | 39.59765 | 218 ft | 10 kts | 27° |
| 2026-04-23 04:40 | -4.03177 | 39.59801 | 219 ft | 11 kts | 28° |
| 2026-04-23 04:40 | -4.03104 | 39.59840 | 219 ft | 13 kts | 28° |
| 2026-04-23 04:40 | -4.03023 | 39.59884 | 218 ft | 14 kts | 28° |
| 2026-04-23 04:41 | -4.02936 | 39.59932 | 216 ft | 15 kts | 28° |
| 2026-04-23 04:41 | -4.02871 | 39.59971 | 218 ft | 7 kts | 32° |
| 2026-04-23 04:41 | -4.02839 | 39.60013 | 219 ft | 9 kts | 84° |
| 2026-04-23 04:41 | -4.02851 | 39.60051 | 222 ft | 1 kts | 117° |
| 2026-04-23 04:42 | -4.02855 | 39.60060 | 218 ft | 2 kts | 117° |
| 2026-04-23 04:42 | -4.02865 | 39.60078 | 219 ft | 4 kts | 117° |
| 2026-04-23 04:42 | -4.02880 | 39.60106 | 217 ft | 5 kts | 117° |
| 2026-04-23 04:42 | -4.02900 | 39.60137 | 210 ft | 4 kts | 142° |
| 2026-04-23 04:43 | -4.02932 | 39.60134 | 217 ft | 5 kts | 200° |
| 2026-04-23 04:43 | -4.02951 | 39.60125 | 221 ft | 1 kts | 206° |
| 2026-04-23 04:43 | -4.02959 | 39.60120 | 221 ft | 2 kts | 208° |
| 2026-04-23 04:43 | -4.02968 | 39.60116 | 215 ft | 1 kts | 208° |
| 2026-04-23 04:44 | -4.02971 | 39.60114 | 221 ft | 0 kts | 208° |
| 2026-04-23 04:44 | -4.02973 | 39.60113 | 221 ft | 0 kts | 208° |